<?xml version="1.0" encoding="UTF-8" standalone="no" ?>
<gpx xmlns="http://www.topografix.com/GPX/1/1" xmlns:xsi="http://www.w3.org/2001/XMLSchema-instance" xsi:schemaLocation="http://www.topografix.com/GPX/1/1 http://www.topografix.com/GPX/1/1/gpx.xsd" version="1.1" creator="VisuGPX - https://www.visugpx.com">
  <metadata>
    <name>BOIS DE ROCHEFORT 6</name>
  </metadata>
  <trk>
    <name><![CDATA[BOIS DE ROCHEFORT 6]]></name>
    <trkseg>
      <trkpt lat="48.59204" lon="1.96598">
        <ele>177.02</ele>
        <time>2021-02-09T08:05:32Z</time>
      </trkpt>
      <trkpt lat="48.59203" lon="1.96599">
        <ele>177.02</ele>
        <time>2021-02-09T08:05:33Z</time>
      </trkpt>
      <trkpt lat="48.59194" lon="1.96606">
        <ele>177.02</ele>
        <time>2021-02-09T08:06:05Z</time>
      </trkpt>
      <trkpt lat="48.59188" lon="1.96599">
        <ele>176.06</ele>
        <time>2021-02-09T08:06:36Z</time>
      </trkpt>
      <trkpt lat="48.59186" lon="1.96596">
        <ele>175.1</ele>
        <time>2021-02-09T08:07:10Z</time>
      </trkpt>
      <trkpt lat="48.59187" lon="1.96601">
        <ele>173.66</ele>
        <time>2021-02-09T08:07:46Z</time>
      </trkpt>
      <trkpt lat="48.59186" lon="1.96603">
        <ele>172.69</ele>
        <time>2021-02-09T08:08:22Z</time>
      </trkpt>
      <trkpt lat="48.59186" lon="1.96604">
        <ele>171.25</ele>
        <time>2021-02-09T08:08:59Z</time>
      </trkpt>
      <trkpt lat="48.59187" lon="1.96603">
        <ele>170.77</ele>
        <time>2021-02-09T08:09:26Z</time>
      </trkpt>
      <trkpt lat="48.59188" lon="1.96601">
        <ele>170.29</ele>
        <time>2021-02-09T08:09:45Z</time>
      </trkpt>
      <trkpt lat="48.59189" lon="1.96604">
        <ele>169.81</ele>
        <time>2021-02-09T08:10:03Z</time>
      </trkpt>
      <trkpt lat="48.59189" lon="1.96603">
        <ele>169.33</ele>
        <time>2021-02-09T08:10:17Z</time>
      </trkpt>
      <trkpt lat="48.59187" lon="1.966">
        <ele>169.33</ele>
        <time>2021-02-09T08:10:32Z</time>
      </trkpt>
      <trkpt lat="48.59186" lon="1.96599">
        <ele>168.37</ele>
        <time>2021-02-09T08:10:48Z</time>
      </trkpt>
      <trkpt lat="48.59184" lon="1.966">
        <ele>168.37</ele>
        <time>2021-02-09T08:10:59Z</time>
      </trkpt>
      <trkpt lat="48.59186" lon="1.96596">
        <ele>167.89</ele>
        <time>2021-02-09T08:11:11Z</time>
      </trkpt>
      <trkpt lat="48.59192" lon="1.96579">
        <ele>168.37</ele>
        <time>2021-02-09T08:11:24Z</time>
      </trkpt>
      <trkpt lat="48.59192" lon="1.96577">
        <ele>168.37</ele>
        <time>2021-02-09T08:11:25Z</time>
      </trkpt>
      <trkpt lat="48.59201" lon="1.96558">
        <ele>168.37</ele>
        <time>2021-02-09T08:11:38Z</time>
      </trkpt>
      <trkpt lat="48.59212" lon="1.9654">
        <ele>168.85</ele>
        <time>2021-02-09T08:11:50Z</time>
      </trkpt>
      <trkpt lat="48.59223" lon="1.9653">
        <ele>170.29</ele>
        <time>2021-02-09T08:11:59Z</time>
      </trkpt>
      <trkpt lat="48.5923" lon="1.96525">
        <ele>170.77</ele>
        <time>2021-02-09T08:12:05Z</time>
      </trkpt>
      <trkpt lat="48.59238" lon="1.9652">
        <ele>172.21</ele>
        <time>2021-02-09T08:12:12Z</time>
      </trkpt>
      <trkpt lat="48.59246" lon="1.96503">
        <ele>173.66</ele>
        <time>2021-02-09T08:12:25Z</time>
      </trkpt>
      <trkpt lat="48.59255" lon="1.96486">
        <ele>175.58</ele>
        <time>2021-02-09T08:12:40Z</time>
      </trkpt>
      <trkpt lat="48.59267" lon="1.96483">
        <ele>177.02</ele>
        <time>2021-02-09T08:12:49Z</time>
      </trkpt>
      <trkpt lat="48.59274" lon="1.96482">
        <ele>177.98</ele>
        <time>2021-02-09T08:12:55Z</time>
      </trkpt>
      <trkpt lat="48.59279" lon="1.96482">
        <ele>178.46</ele>
        <time>2021-02-09T08:12:58Z</time>
      </trkpt>
      <trkpt lat="48.59296" lon="1.96491">
        <ele>180.87</ele>
        <time>2021-02-09T08:13:12Z</time>
      </trkpt>
      <trkpt lat="48.59298" lon="1.96494">
        <ele>181.35</ele>
        <time>2021-02-09T08:13:14Z</time>
      </trkpt>
      <trkpt lat="48.59313" lon="1.96506">
        <ele>182.79</ele>
        <time>2021-02-09T08:13:29Z</time>
      </trkpt>
      <trkpt lat="48.59326" lon="1.96524">
        <ele>183.27</ele>
        <time>2021-02-09T08:13:42Z</time>
      </trkpt>
      <trkpt lat="48.59337" lon="1.96536">
        <ele>184.23</ele>
        <time>2021-02-09T08:13:53Z</time>
      </trkpt>
      <trkpt lat="48.59338" lon="1.96539">
        <ele>184.23</ele>
        <time>2021-02-09T08:13:55Z</time>
      </trkpt>
      <trkpt lat="48.59346" lon="1.96547">
        <ele>185.19</ele>
        <time>2021-02-09T08:14:03Z</time>
      </trkpt>
      <trkpt lat="48.59346" lon="1.96548">
        <ele>185.19</ele>
        <time>2021-02-09T08:14:04Z</time>
      </trkpt>
      <trkpt lat="48.59354" lon="1.96553">
        <ele>185.67</ele>
        <time>2021-02-09T08:14:09Z</time>
      </trkpt>
      <trkpt lat="48.59371" lon="1.96569">
        <ele>188.56</ele>
        <time>2021-02-09T08:14:24Z</time>
      </trkpt>
      <trkpt lat="48.59383" lon="1.96581">
        <ele>190.48</ele>
        <time>2021-02-09T08:14:36Z</time>
      </trkpt>
      <trkpt lat="48.59386" lon="1.96585">
        <ele>190.96</ele>
        <time>2021-02-09T08:14:39Z</time>
      </trkpt>
      <trkpt lat="48.59389" lon="1.96587">
        <ele>190.96</ele>
        <time>2021-02-09T08:14:42Z</time>
      </trkpt>
      <trkpt lat="48.59397" lon="1.96597">
        <ele>192.88</ele>
        <time>2021-02-09T08:14:52Z</time>
      </trkpt>
      <trkpt lat="48.59399" lon="1.96601">
        <ele>192.88</ele>
        <time>2021-02-09T08:14:55Z</time>
      </trkpt>
      <trkpt lat="48.59404" lon="1.96607">
        <ele>193.84</ele>
        <time>2021-02-09T08:15:01Z</time>
      </trkpt>
      <trkpt lat="48.59408" lon="1.96611">
        <ele>193.84</ele>
        <time>2021-02-09T08:15:04Z</time>
      </trkpt>
      <trkpt lat="48.5941" lon="1.96617">
        <ele>194.32</ele>
        <time>2021-02-09T08:15:08Z</time>
      </trkpt>
      <trkpt lat="48.59411" lon="1.96632">
        <ele>195.28</ele>
        <time>2021-02-09T08:15:16Z</time>
      </trkpt>
      <trkpt lat="48.59408" lon="1.96641">
        <ele>194.32</ele>
        <time>2021-02-09T08:15:21Z</time>
      </trkpt>
      <trkpt lat="48.59426" lon="1.96648">
        <ele>194.8</ele>
        <time>2021-02-09T08:15:27Z</time>
      </trkpt>
      <trkpt lat="48.59423" lon="1.96653">
        <ele>194.32</ele>
        <time>2021-02-09T08:15:31Z</time>
      </trkpt>
      <trkpt lat="48.59412" lon="1.96671">
        <ele>194.32</ele>
        <time>2021-02-09T08:15:44Z</time>
      </trkpt>
      <trkpt lat="48.59409" lon="1.9668">
        <ele>194.32</ele>
        <time>2021-02-09T08:15:48Z</time>
      </trkpt>
      <trkpt lat="48.59407" lon="1.96689">
        <ele>193.84</ele>
        <time>2021-02-09T08:15:53Z</time>
      </trkpt>
      <trkpt lat="48.59409" lon="1.96694">
        <ele>194.32</ele>
        <time>2021-02-09T08:15:57Z</time>
      </trkpt>
      <trkpt lat="48.5942" lon="1.96711">
        <ele>194.8</ele>
        <time>2021-02-09T08:16:09Z</time>
      </trkpt>
      <trkpt lat="48.59419" lon="1.96744">
        <ele>197.21</ele>
        <time>2021-02-09T08:16:26Z</time>
      </trkpt>
      <trkpt lat="48.59427" lon="1.96768">
        <ele>198.65</ele>
        <time>2021-02-09T08:16:39Z</time>
      </trkpt>
      <trkpt lat="48.59436" lon="1.96789">
        <ele>199.61</ele>
        <time>2021-02-09T08:16:52Z</time>
      </trkpt>
      <trkpt lat="48.59443" lon="1.96812">
        <ele>201.05</ele>
        <time>2021-02-09T08:17:04Z</time>
      </trkpt>
      <trkpt lat="48.59446" lon="1.96823">
        <ele>202.01</ele>
        <time>2021-02-09T08:17:10Z</time>
      </trkpt>
      <trkpt lat="48.5944" lon="1.96854">
        <ele>203.94</ele>
        <time>2021-02-09T08:17:27Z</time>
      </trkpt>
      <trkpt lat="48.59425" lon="1.96859">
        <ele>205.86</ele>
        <time>2021-02-09T08:17:40Z</time>
      </trkpt>
      <trkpt lat="48.5941" lon="1.9688">
        <ele>207.3</ele>
        <time>2021-02-09T08:17:55Z</time>
      </trkpt>
      <trkpt lat="48.59404" lon="1.96893">
        <ele>207.78</ele>
        <time>2021-02-09T08:18:02Z</time>
      </trkpt>
      <trkpt lat="48.59405" lon="1.96905">
        <ele>207.3</ele>
        <time>2021-02-09T08:18:08Z</time>
      </trkpt>
      <trkpt lat="48.59408" lon="1.96921">
        <ele>206.82</ele>
        <time>2021-02-09T08:18:16Z</time>
      </trkpt>
      <trkpt lat="48.59409" lon="1.96928">
        <ele>206.82</ele>
        <time>2021-02-09T08:18:20Z</time>
      </trkpt>
      <trkpt lat="48.59418" lon="1.96954">
        <ele>205.86</ele>
        <time>2021-02-09T08:18:35Z</time>
      </trkpt>
      <trkpt lat="48.59427" lon="1.96968">
        <ele>204.9</ele>
        <time>2021-02-09T08:18:44Z</time>
      </trkpt>
      <trkpt lat="48.59425" lon="1.9699">
        <ele>204.42</ele>
        <time>2021-02-09T08:18:56Z</time>
      </trkpt>
      <trkpt lat="48.59421" lon="1.97016">
        <ele>204.9</ele>
        <time>2021-02-09T08:19:09Z</time>
      </trkpt>
      <trkpt lat="48.59425" lon="1.9704">
        <ele>204.42</ele>
        <time>2021-02-09T08:19:22Z</time>
      </trkpt>
      <trkpt lat="48.59431" lon="1.97068">
        <ele>204.42</ele>
        <time>2021-02-09T08:19:36Z</time>
      </trkpt>
      <trkpt lat="48.59437" lon="1.97096">
        <ele>204.42</ele>
        <time>2021-02-09T08:19:50Z</time>
      </trkpt>
      <trkpt lat="48.59437" lon="1.97122">
        <ele>203.94</ele>
        <time>2021-02-09T08:20:02Z</time>
      </trkpt>
      <trkpt lat="48.59437" lon="1.97138">
        <ele>203.46</ele>
        <time>2021-02-09T08:20:10Z</time>
      </trkpt>
      <trkpt lat="48.59444" lon="1.97171">
        <ele>202.98</ele>
        <time>2021-02-09T08:20:26Z</time>
      </trkpt>
      <trkpt lat="48.59437" lon="1.97201">
        <ele>202.49</ele>
        <time>2021-02-09T08:20:41Z</time>
      </trkpt>
      <trkpt lat="48.5943" lon="1.97217">
        <ele>201.53</ele>
        <time>2021-02-09T08:20:50Z</time>
      </trkpt>
      <trkpt lat="48.5943" lon="1.97224">
        <ele>201.05</ele>
        <time>2021-02-09T08:20:54Z</time>
      </trkpt>
      <trkpt lat="48.59427" lon="1.97238">
        <ele>199.13</ele>
        <time>2021-02-09T08:21:02Z</time>
      </trkpt>
      <trkpt lat="48.59438" lon="1.97255">
        <ele>197.21</ele>
        <time>2021-02-09T08:21:16Z</time>
      </trkpt>
      <trkpt lat="48.59443" lon="1.97262">
        <ele>196.25</ele>
        <time>2021-02-09T08:21:21Z</time>
      </trkpt>
      <trkpt lat="48.59453" lon="1.97283">
        <ele>193.36</ele>
        <time>2021-02-09T08:21:35Z</time>
      </trkpt>
      <trkpt lat="48.59459" lon="1.97298">
        <ele>190</ele>
        <time>2021-02-09T08:21:47Z</time>
      </trkpt>
      <trkpt lat="48.5946" lon="1.97302">
        <ele>189.04</ele>
        <time>2021-02-09T08:21:49Z</time>
      </trkpt>
      <trkpt lat="48.59462" lon="1.97317">
        <ele>185.67</ele>
        <time>2021-02-09T08:21:59Z</time>
      </trkpt>
      <trkpt lat="48.59462" lon="1.97318">
        <ele>184.71</ele>
        <time>2021-02-09T08:22:01Z</time>
      </trkpt>
      <trkpt lat="48.59463" lon="1.97332">
        <ele>181.83</ele>
        <time>2021-02-09T08:22:11Z</time>
      </trkpt>
      <trkpt lat="48.59464" lon="1.97334">
        <ele>181.83</ele>
        <time>2021-02-09T08:22:12Z</time>
      </trkpt>
      <trkpt lat="48.59465" lon="1.97338">
        <ele>180.87</ele>
        <time>2021-02-09T08:22:14Z</time>
      </trkpt>
      <trkpt lat="48.59474" lon="1.97358">
        <ele>178.94</ele>
        <time>2021-02-09T08:22:29Z</time>
      </trkpt>
      <trkpt lat="48.59474" lon="1.9736">
        <ele>178.46</ele>
        <time>2021-02-09T08:22:30Z</time>
      </trkpt>
      <trkpt lat="48.59478" lon="1.97381">
        <ele>176.06</ele>
        <time>2021-02-09T08:22:43Z</time>
      </trkpt>
      <trkpt lat="48.59483" lon="1.97402">
        <ele>176.54</ele>
        <time>2021-02-09T08:22:59Z</time>
      </trkpt>
      <trkpt lat="48.59483" lon="1.97406">
        <ele>176.06</ele>
        <time>2021-02-09T08:23:15Z</time>
      </trkpt>
      <trkpt lat="48.59484" lon="1.97413">
        <ele>175.58</ele>
        <time>2021-02-09T08:23:32Z</time>
      </trkpt>
      <trkpt lat="48.59484" lon="1.97425">
        <ele>175.1</ele>
        <time>2021-02-09T08:23:46Z</time>
      </trkpt>
      <trkpt lat="48.59483" lon="1.97428">
        <ele>175.1</ele>
        <time>2021-02-09T08:23:48Z</time>
      </trkpt>
      <trkpt lat="48.59477" lon="1.97452">
        <ele>175.58</ele>
        <time>2021-02-09T08:24:02Z</time>
      </trkpt>
      <trkpt lat="48.59474" lon="1.97471">
        <ele>175.58</ele>
        <time>2021-02-09T08:24:13Z</time>
      </trkpt>
      <trkpt lat="48.59475" lon="1.97483">
        <ele>176.06</ele>
        <time>2021-02-09T08:24:20Z</time>
      </trkpt>
      <trkpt lat="48.59479" lon="1.97503">
        <ele>176.54</ele>
        <time>2021-02-09T08:24:31Z</time>
      </trkpt>
      <trkpt lat="48.59473" lon="1.9754">
        <ele>177.98</ele>
        <time>2021-02-09T08:24:48Z</time>
      </trkpt>
      <trkpt lat="48.59471" lon="1.97543">
        <ele>177.98</ele>
        <time>2021-02-09T08:24:50Z</time>
      </trkpt>
      <trkpt lat="48.59463" lon="1.9756">
        <ele>178.46</ele>
        <time>2021-02-09T08:25:04Z</time>
      </trkpt>
      <trkpt lat="48.59457" lon="1.97567">
        <ele>178.94</ele>
        <time>2021-02-09T08:25:10Z</time>
      </trkpt>
      <trkpt lat="48.59448" lon="1.97582">
        <ele>179.42</ele>
        <time>2021-02-09T08:25:20Z</time>
      </trkpt>
      <trkpt lat="48.59438" lon="1.97607">
        <ele>180.87</ele>
        <time>2021-02-09T08:25:34Z</time>
      </trkpt>
      <trkpt lat="48.59434" lon="1.97629">
        <ele>181.83</ele>
        <time>2021-02-09T08:25:45Z</time>
      </trkpt>
      <trkpt lat="48.59434" lon="1.97647">
        <ele>182.79</ele>
        <time>2021-02-09T08:25:54Z</time>
      </trkpt>
      <trkpt lat="48.59432" lon="1.97664">
        <ele>184.23</ele>
        <time>2021-02-09T08:26:03Z</time>
      </trkpt>
      <trkpt lat="48.59432" lon="1.9767">
        <ele>184.71</ele>
        <time>2021-02-09T08:26:06Z</time>
      </trkpt>
      <trkpt lat="48.59435" lon="1.97696">
        <ele>186.63</ele>
        <time>2021-02-09T08:26:21Z</time>
      </trkpt>
      <trkpt lat="48.5944" lon="1.97718">
        <ele>188.08</ele>
        <time>2021-02-09T08:26:34Z</time>
      </trkpt>
      <trkpt lat="48.5944" lon="1.97719">
        <ele>188.56</ele>
        <time>2021-02-09T08:26:35Z</time>
      </trkpt>
      <trkpt lat="48.59443" lon="1.9773">
        <ele>189.04</ele>
        <time>2021-02-09T08:26:49Z</time>
      </trkpt>
      <trkpt lat="48.59442" lon="1.97741">
        <ele>189.04</ele>
        <time>2021-02-09T08:27:07Z</time>
      </trkpt>
      <trkpt lat="48.59438" lon="1.97743">
        <ele>189.52</ele>
        <time>2021-02-09T08:27:11Z</time>
      </trkpt>
      <trkpt lat="48.59431" lon="1.97744">
        <ele>190</ele>
        <time>2021-02-09T08:27:19Z</time>
      </trkpt>
      <trkpt lat="48.5941" lon="1.97732">
        <ele>189.52</ele>
        <time>2021-02-09T08:27:33Z</time>
      </trkpt>
      <trkpt lat="48.59407" lon="1.9773">
        <ele>189.52</ele>
        <time>2021-02-09T08:27:36Z</time>
      </trkpt>
      <trkpt lat="48.59402" lon="1.97725">
        <ele>189.52</ele>
        <time>2021-02-09T08:27:40Z</time>
      </trkpt>
      <trkpt lat="48.59385" lon="1.97713">
        <ele>189.04</ele>
        <time>2021-02-09T08:27:53Z</time>
      </trkpt>
      <trkpt lat="48.59378" lon="1.97709">
        <ele>189.04</ele>
        <time>2021-02-09T08:27:58Z</time>
      </trkpt>
      <trkpt lat="48.59368" lon="1.97708">
        <ele>189.04</ele>
        <time>2021-02-09T08:28:04Z</time>
      </trkpt>
      <trkpt lat="48.59357" lon="1.97712">
        <ele>188.56</ele>
        <time>2021-02-09T08:28:13Z</time>
      </trkpt>
      <trkpt lat="48.59345" lon="1.97737">
        <ele>188.56</ele>
        <time>2021-02-09T08:28:29Z</time>
      </trkpt>
      <trkpt lat="48.5934" lon="1.97757">
        <ele>188.08</ele>
        <time>2021-02-09T08:28:40Z</time>
      </trkpt>
      <trkpt lat="48.59337" lon="1.97769">
        <ele>187.59</ele>
        <time>2021-02-09T08:28:48Z</time>
      </trkpt>
      <trkpt lat="48.59338" lon="1.97778">
        <ele>187.11</ele>
        <time>2021-02-09T08:28:52Z</time>
      </trkpt>
      <trkpt lat="48.59341" lon="1.97792">
        <ele>187.11</ele>
        <time>2021-02-09T08:28:57Z</time>
      </trkpt>
      <trkpt lat="48.59343" lon="1.97802">
        <ele>187.11</ele>
        <time>2021-02-09T08:29:02Z</time>
      </trkpt>
      <trkpt lat="48.5935" lon="1.9782">
        <ele>186.63</ele>
        <time>2021-02-09T08:29:11Z</time>
      </trkpt>
      <trkpt lat="48.59356" lon="1.97844">
        <ele>186.63</ele>
        <time>2021-02-09T08:29:23Z</time>
      </trkpt>
      <trkpt lat="48.59363" lon="1.97864">
        <ele>186.15</ele>
        <time>2021-02-09T08:29:35Z</time>
      </trkpt>
      <trkpt lat="48.59368" lon="1.97878">
        <ele>186.15</ele>
        <time>2021-02-09T08:29:43Z</time>
      </trkpt>
      <trkpt lat="48.5937" lon="1.97892">
        <ele>186.15</ele>
        <time>2021-02-09T08:29:49Z</time>
      </trkpt>
      <trkpt lat="48.59371" lon="1.97925">
        <ele>185.67</ele>
        <time>2021-02-09T08:30:03Z</time>
      </trkpt>
      <trkpt lat="48.59367" lon="1.97957">
        <ele>185.19</ele>
        <time>2021-02-09T08:30:17Z</time>
      </trkpt>
      <trkpt lat="48.59364" lon="1.97968">
        <ele>185.19</ele>
        <time>2021-02-09T08:30:22Z</time>
      </trkpt>
      <trkpt lat="48.59364" lon="1.97973">
        <ele>185.19</ele>
        <time>2021-02-09T08:30:24Z</time>
      </trkpt>
      <trkpt lat="48.59357" lon="1.97995">
        <ele>184.23</ele>
        <time>2021-02-09T08:30:38Z</time>
      </trkpt>
      <trkpt lat="48.5935" lon="1.98007">
        <ele>183.75</ele>
        <time>2021-02-09T08:30:50Z</time>
      </trkpt>
      <trkpt lat="48.59346" lon="1.98011">
        <ele>182.79</ele>
        <time>2021-02-09T08:31:03Z</time>
      </trkpt>
      <trkpt lat="48.59347" lon="1.9801">
        <ele>182.79</ele>
        <time>2021-02-09T08:31:18Z</time>
      </trkpt>
      <trkpt lat="48.59348" lon="1.98012">
        <ele>182.79</ele>
        <time>2021-02-09T08:31:30Z</time>
      </trkpt>
      <trkpt lat="48.59348" lon="1.98012">
        <ele>182.31</ele>
        <time>2021-02-09T08:31:31Z</time>
      </trkpt>
      <trkpt lat="48.59352" lon="1.98016">
        <ele>182.79</ele>
        <time>2021-02-09T08:31:35Z</time>
      </trkpt>
      <trkpt lat="48.59365" lon="1.98036">
        <ele>182.31</ele>
        <time>2021-02-09T08:31:49Z</time>
      </trkpt>
      <trkpt lat="48.59377" lon="1.98052">
        <ele>182.31</ele>
        <time>2021-02-09T08:32:02Z</time>
      </trkpt>
      <trkpt lat="48.59381" lon="1.98055">
        <ele>181.83</ele>
        <time>2021-02-09T08:32:05Z</time>
      </trkpt>
      <trkpt lat="48.59382" lon="1.98059">
        <ele>181.83</ele>
        <time>2021-02-09T08:32:08Z</time>
      </trkpt>
      <trkpt lat="48.59391" lon="1.9807">
        <ele>181.35</ele>
        <time>2021-02-09T08:32:16Z</time>
      </trkpt>
      <trkpt lat="48.59408" lon="1.98081">
        <ele>180.87</ele>
        <time>2021-02-09T08:32:30Z</time>
      </trkpt>
      <trkpt lat="48.5941" lon="1.98082">
        <ele>180.87</ele>
        <time>2021-02-09T08:32:32Z</time>
      </trkpt>
      <trkpt lat="48.59417" lon="1.98082">
        <ele>181.35</ele>
        <time>2021-02-09T08:32:38Z</time>
      </trkpt>
      <trkpt lat="48.59423" lon="1.98077">
        <ele>181.35</ele>
        <time>2021-02-09T08:32:43Z</time>
      </trkpt>
      <trkpt lat="48.59434" lon="1.98059">
        <ele>181.35</ele>
        <time>2021-02-09T08:32:54Z</time>
      </trkpt>
      <trkpt lat="48.59437" lon="1.98056">
        <ele>181.35</ele>
        <time>2021-02-09T08:32:57Z</time>
      </trkpt>
      <trkpt lat="48.59442" lon="1.98047">
        <ele>180.87</ele>
        <time>2021-02-09T08:33:04Z</time>
      </trkpt>
      <trkpt lat="48.59462" lon="1.98025">
        <ele>180.87</ele>
        <time>2021-02-09T08:33:18Z</time>
      </trkpt>
      <trkpt lat="48.59466" lon="1.98022">
        <ele>180.87</ele>
        <time>2021-02-09T08:33:20Z</time>
      </trkpt>
      <trkpt lat="48.59484" lon="1.98002">
        <ele>180.87</ele>
        <time>2021-02-09T08:33:35Z</time>
      </trkpt>
      <trkpt lat="48.59501" lon="1.97989">
        <ele>180.38</ele>
        <time>2021-02-09T08:33:49Z</time>
      </trkpt>
      <trkpt lat="48.59512" lon="1.97997">
        <ele>179.42</ele>
        <time>2021-02-09T08:34:02Z</time>
      </trkpt>
      <trkpt lat="48.59517" lon="1.98001">
        <ele>179.42</ele>
        <time>2021-02-09T08:34:08Z</time>
      </trkpt>
      <trkpt lat="48.5953" lon="1.98012">
        <ele>178.46</ele>
        <time>2021-02-09T08:34:20Z</time>
      </trkpt>
      <trkpt lat="48.59552" lon="1.98029">
        <ele>177.02</ele>
        <time>2021-02-09T08:34:36Z</time>
      </trkpt>
      <trkpt lat="48.59564" lon="1.98038">
        <ele>175.58</ele>
        <time>2021-02-09T08:34:49Z</time>
      </trkpt>
      <trkpt lat="48.59568" lon="1.9804">
        <ele>175.1</ele>
        <time>2021-02-09T08:34:54Z</time>
      </trkpt>
      <trkpt lat="48.59572" lon="1.98044">
        <ele>174.62</ele>
        <time>2021-02-09T08:34:58Z</time>
      </trkpt>
      <trkpt lat="48.59583" lon="1.98058">
        <ele>173.66</ele>
        <time>2021-02-09T08:35:08Z</time>
      </trkpt>
      <trkpt lat="48.59589" lon="1.98064">
        <ele>173.17</ele>
        <time>2021-02-09T08:35:13Z</time>
      </trkpt>
      <trkpt lat="48.596" lon="1.98085">
        <ele>172.21</ele>
        <time>2021-02-09T08:35:25Z</time>
      </trkpt>
      <trkpt lat="48.59617" lon="1.98103">
        <ele>171.73</ele>
        <time>2021-02-09T08:35:39Z</time>
      </trkpt>
      <trkpt lat="48.5964" lon="1.98123">
        <ele>171.25</ele>
        <time>2021-02-09T08:35:53Z</time>
      </trkpt>
      <trkpt lat="48.59663" lon="1.98144">
        <ele>170.29</ele>
        <time>2021-02-09T08:36:09Z</time>
      </trkpt>
      <trkpt lat="48.59683" lon="1.98171">
        <ele>168.85</ele>
        <time>2021-02-09T08:36:24Z</time>
      </trkpt>
      <trkpt lat="48.59687" lon="1.98176">
        <ele>168.37</ele>
        <time>2021-02-09T08:36:27Z</time>
      </trkpt>
      <trkpt lat="48.59699" lon="1.98186">
        <ele>166.93</ele>
        <time>2021-02-09T08:36:38Z</time>
      </trkpt>
      <trkpt lat="48.59703" lon="1.98189">
        <ele>166.45</ele>
        <time>2021-02-09T08:36:41Z</time>
      </trkpt>
      <trkpt lat="48.59726" lon="1.98199">
        <ele>164.04</ele>
        <time>2021-02-09T08:36:55Z</time>
      </trkpt>
      <trkpt lat="48.59735" lon="1.98201">
        <ele>163.56</ele>
        <time>2021-02-09T08:37:08Z</time>
      </trkpt>
      <trkpt lat="48.59736" lon="1.98202">
        <ele>163.08</ele>
        <time>2021-02-09T08:37:10Z</time>
      </trkpt>
      <trkpt lat="48.59744" lon="1.98208">
        <ele>161.16</ele>
        <time>2021-02-09T08:37:18Z</time>
      </trkpt>
      <trkpt lat="48.59752" lon="1.98214">
        <ele>160.2</ele>
        <time>2021-02-09T08:37:27Z</time>
      </trkpt>
      <trkpt lat="48.59758" lon="1.98216">
        <ele>159.72</ele>
        <time>2021-02-09T08:37:31Z</time>
      </trkpt>
      <trkpt lat="48.59773" lon="1.98228">
        <ele>157.79</ele>
        <time>2021-02-09T08:37:45Z</time>
      </trkpt>
      <trkpt lat="48.59793" lon="1.98251">
        <ele>154.43</ele>
        <time>2021-02-09T08:38:01Z</time>
      </trkpt>
      <trkpt lat="48.59804" lon="1.98253">
        <ele>151.54</ele>
        <time>2021-02-09T08:38:13Z</time>
      </trkpt>
      <trkpt lat="48.59811" lon="1.98255">
        <ele>149.62</ele>
        <time>2021-02-09T08:38:21Z</time>
      </trkpt>
      <trkpt lat="48.59828" lon="1.98261">
        <ele>147.7</ele>
        <time>2021-02-09T08:38:32Z</time>
      </trkpt>
      <trkpt lat="48.5983" lon="1.98264">
        <ele>147.22</ele>
        <time>2021-02-09T08:38:35Z</time>
      </trkpt>
      <trkpt lat="48.59852" lon="1.9827">
        <ele>144.82</ele>
        <time>2021-02-09T08:38:48Z</time>
      </trkpt>
      <trkpt lat="48.59868" lon="1.98277">
        <ele>142.89</ele>
        <time>2021-02-09T08:39:03Z</time>
      </trkpt>
      <trkpt lat="48.5987" lon="1.98282">
        <ele>141.93</ele>
        <time>2021-02-09T08:39:08Z</time>
      </trkpt>
      <trkpt lat="48.59876" lon="1.98285">
        <ele>141.45</ele>
        <time>2021-02-09T08:39:12Z</time>
      </trkpt>
      <trkpt lat="48.59889" lon="1.98297">
        <ele>140.49</ele>
        <time>2021-02-09T08:39:21Z</time>
      </trkpt>
      <trkpt lat="48.59888" lon="1.9832">
        <ele>140.49</ele>
        <time>2021-02-09T08:39:32Z</time>
      </trkpt>
      <trkpt lat="48.59871" lon="1.98343">
        <ele>140.97</ele>
        <time>2021-02-09T08:39:48Z</time>
      </trkpt>
      <trkpt lat="48.59869" lon="1.98348">
        <ele>140.49</ele>
        <time>2021-02-09T08:39:51Z</time>
      </trkpt>
      <trkpt lat="48.59862" lon="1.98369">
        <ele>140.01</ele>
        <time>2021-02-09T08:40:02Z</time>
      </trkpt>
      <trkpt lat="48.59856" lon="1.98379">
        <ele>140.01</ele>
        <time>2021-02-09T08:40:08Z</time>
      </trkpt>
      <trkpt lat="48.59853" lon="1.98385">
        <ele>139.53</ele>
        <time>2021-02-09T08:40:11Z</time>
      </trkpt>
      <trkpt lat="48.59849" lon="1.98395">
        <ele>138.57</ele>
        <time>2021-02-09T08:40:17Z</time>
      </trkpt>
      <trkpt lat="48.59844" lon="1.98414">
        <ele>139.05</ele>
        <time>2021-02-09T08:40:25Z</time>
      </trkpt>
      <trkpt lat="48.59842" lon="1.98432">
        <ele>140.97</ele>
        <time>2021-02-09T08:40:34Z</time>
      </trkpt>
      <trkpt lat="48.5985" lon="1.98456">
        <ele>141.45</ele>
        <time>2021-02-09T08:40:44Z</time>
      </trkpt>
      <trkpt lat="48.59853" lon="1.98464">
        <ele>141.45</ele>
        <time>2021-02-09T08:40:49Z</time>
      </trkpt>
      <trkpt lat="48.59854" lon="1.98487">
        <ele>142.41</ele>
        <time>2021-02-09T08:41:04Z</time>
      </trkpt>
      <trkpt lat="48.59847" lon="1.98496">
        <ele>144.34</ele>
        <time>2021-02-09T08:41:17Z</time>
      </trkpt>
      <trkpt lat="48.59831" lon="1.98509">
        <ele>147.22</ele>
        <time>2021-02-09T08:41:30Z</time>
      </trkpt>
      <trkpt lat="48.59815" lon="1.98507">
        <ele>150.58</ele>
        <time>2021-02-09T08:41:43Z</time>
      </trkpt>
      <trkpt lat="48.59805" lon="1.98509">
        <ele>153.95</ele>
        <time>2021-02-09T08:41:56Z</time>
      </trkpt>
      <trkpt lat="48.5979" lon="1.98513">
        <ele>156.83</ele>
        <time>2021-02-09T08:42:11Z</time>
      </trkpt>
      <trkpt lat="48.59771" lon="1.98526">
        <ele>158.27</ele>
        <time>2021-02-09T08:42:25Z</time>
      </trkpt>
      <trkpt lat="48.59756" lon="1.98539">
        <ele>158.75</ele>
        <time>2021-02-09T08:42:40Z</time>
      </trkpt>
      <trkpt lat="48.59746" lon="1.98545">
        <ele>158.75</ele>
        <time>2021-02-09T08:42:55Z</time>
      </trkpt>
      <trkpt lat="48.59735" lon="1.98544">
        <ele>158.75</ele>
        <time>2021-02-09T08:43:07Z</time>
      </trkpt>
      <trkpt lat="48.59728" lon="1.98547">
        <ele>158.75</ele>
        <time>2021-02-09T08:43:15Z</time>
      </trkpt>
      <trkpt lat="48.59712" lon="1.98561">
        <ele>158.27</ele>
        <time>2021-02-09T08:43:29Z</time>
      </trkpt>
      <trkpt lat="48.59709" lon="1.98563">
        <ele>158.27</ele>
        <time>2021-02-09T08:43:31Z</time>
      </trkpt>
      <trkpt lat="48.59699" lon="1.98581">
        <ele>156.35</ele>
        <time>2021-02-09T08:43:44Z</time>
      </trkpt>
      <trkpt lat="48.59701" lon="1.98603">
        <ele>153.47</ele>
        <time>2021-02-09T08:43:54Z</time>
      </trkpt>
      <trkpt lat="48.59701" lon="1.98614">
        <ele>150.58</ele>
        <time>2021-02-09T08:44:01Z</time>
      </trkpt>
      <trkpt lat="48.59701" lon="1.98622">
        <ele>149.14</ele>
        <time>2021-02-09T08:44:04Z</time>
      </trkpt>
      <trkpt lat="48.597" lon="1.98633">
        <ele>145.78</ele>
        <time>2021-02-09T08:44:12Z</time>
      </trkpt>
      <trkpt lat="48.59698" lon="1.98651">
        <ele>142.41</ele>
        <time>2021-02-09T08:44:20Z</time>
      </trkpt>
      <trkpt lat="48.59691" lon="1.98672">
        <ele>139.53</ele>
        <time>2021-02-09T08:44:30Z</time>
      </trkpt>
      <trkpt lat="48.59686" lon="1.98685">
        <ele>137.61</ele>
        <time>2021-02-09T08:44:38Z</time>
      </trkpt>
      <trkpt lat="48.59684" lon="1.98695">
        <ele>136.64</ele>
        <time>2021-02-09T08:44:43Z</time>
      </trkpt>
      <trkpt lat="48.59669" lon="1.987">
        <ele>136.16</ele>
        <time>2021-02-09T08:44:55Z</time>
      </trkpt>
      <trkpt lat="48.59668" lon="1.987">
        <ele>136.16</ele>
        <time>2021-02-09T08:44:56Z</time>
      </trkpt>
      <trkpt lat="48.59648" lon="1.98688">
        <ele>136.16</ele>
        <time>2021-02-09T08:45:11Z</time>
      </trkpt>
      <trkpt lat="48.59636" lon="1.98682">
        <ele>136.16</ele>
        <time>2021-02-09T08:45:19Z</time>
      </trkpt>
      <trkpt lat="48.59632" lon="1.98686">
        <ele>136.16</ele>
        <time>2021-02-09T08:45:22Z</time>
      </trkpt>
      <trkpt lat="48.59616" lon="1.9871">
        <ele>134.72</ele>
        <time>2021-02-09T08:45:36Z</time>
      </trkpt>
      <trkpt lat="48.59615" lon="1.98711">
        <ele>134.72</ele>
        <time>2021-02-09T08:45:37Z</time>
      </trkpt>
      <trkpt lat="48.59609" lon="1.98725">
        <ele>134.24</ele>
        <time>2021-02-09T08:45:45Z</time>
      </trkpt>
      <trkpt lat="48.59595" lon="1.98741">
        <ele>133.28</ele>
        <time>2021-02-09T08:45:57Z</time>
      </trkpt>
      <trkpt lat="48.5958" lon="1.98764">
        <ele>133.76</ele>
        <time>2021-02-09T08:46:11Z</time>
      </trkpt>
      <trkpt lat="48.59571" lon="1.98768">
        <ele>135.2</ele>
        <time>2021-02-09T08:46:20Z</time>
      </trkpt>
      <trkpt lat="48.59566" lon="1.9877">
        <ele>135.2</ele>
        <time>2021-02-09T08:46:23Z</time>
      </trkpt>
      <trkpt lat="48.59563" lon="1.98772">
        <ele>134.72</ele>
        <time>2021-02-09T08:46:25Z</time>
      </trkpt>
      <trkpt lat="48.59551" lon="1.98787">
        <ele>134.72</ele>
        <time>2021-02-09T08:46:37Z</time>
      </trkpt>
      <trkpt lat="48.59554" lon="1.988">
        <ele>133.76</ele>
        <time>2021-02-09T08:46:48Z</time>
      </trkpt>
      <trkpt lat="48.59562" lon="1.98798">
        <ele>133.76</ele>
        <time>2021-02-09T08:47:02Z</time>
      </trkpt>
      <trkpt lat="48.59576" lon="1.98798">
        <ele>134.24</ele>
        <time>2021-02-09T08:47:16Z</time>
      </trkpt>
      <trkpt lat="48.59596" lon="1.98795">
        <ele>133.28</ele>
        <time>2021-02-09T08:47:29Z</time>
      </trkpt>
      <trkpt lat="48.59607" lon="1.98794">
        <ele>132.32</ele>
        <time>2021-02-09T08:47:43Z</time>
      </trkpt>
      <trkpt lat="48.59619" lon="1.98793">
        <ele>130.4</ele>
        <time>2021-02-09T08:47:56Z</time>
      </trkpt>
      <trkpt lat="48.59621" lon="1.98793">
        <ele>130.4</ele>
        <time>2021-02-09T08:47:58Z</time>
      </trkpt>
      <trkpt lat="48.59643" lon="1.98792">
        <ele>128.47</ele>
        <time>2021-02-09T08:48:12Z</time>
      </trkpt>
      <trkpt lat="48.59648" lon="1.98794">
        <ele>127.99</ele>
        <time>2021-02-09T08:48:18Z</time>
      </trkpt>
      <trkpt lat="48.59663" lon="1.98794">
        <ele>126.55</ele>
        <time>2021-02-09T08:48:31Z</time>
      </trkpt>
      <trkpt lat="48.59669" lon="1.98796">
        <ele>125.59</ele>
        <time>2021-02-09T08:48:41Z</time>
      </trkpt>
      <trkpt lat="48.59679" lon="1.98793">
        <ele>125.11</ele>
        <time>2021-02-09T08:48:48Z</time>
      </trkpt>
      <trkpt lat="48.59703" lon="1.98792">
        <ele>124.15</ele>
        <time>2021-02-09T08:49:04Z</time>
      </trkpt>
      <trkpt lat="48.59714" lon="1.98793">
        <ele>123.67</ele>
        <time>2021-02-09T08:49:12Z</time>
      </trkpt>
      <trkpt lat="48.5973" lon="1.98794">
        <ele>123.19</ele>
        <time>2021-02-09T08:49:22Z</time>
      </trkpt>
      <trkpt lat="48.59757" lon="1.98795">
        <ele>122.22</ele>
        <time>2021-02-09T08:49:38Z</time>
      </trkpt>
      <trkpt lat="48.59768" lon="1.98796">
        <ele>122.22</ele>
        <time>2021-02-09T08:49:45Z</time>
      </trkpt>
      <trkpt lat="48.59772" lon="1.98796">
        <ele>121.74</ele>
        <time>2021-02-09T08:49:48Z</time>
      </trkpt>
      <trkpt lat="48.59803" lon="1.98796">
        <ele>120.78</ele>
        <time>2021-02-09T08:50:01Z</time>
      </trkpt>
      <trkpt lat="48.59843" lon="1.98789">
        <ele>118.86</ele>
        <time>2021-02-09T08:50:16Z</time>
      </trkpt>
      <trkpt lat="48.59863" lon="1.98785">
        <ele>117.9</ele>
        <time>2021-02-09T08:50:29Z</time>
      </trkpt>
      <trkpt lat="48.59882" lon="1.98781">
        <ele>116.94</ele>
        <time>2021-02-09T08:50:42Z</time>
      </trkpt>
      <trkpt lat="48.59899" lon="1.98777">
        <ele>116.46</ele>
        <time>2021-02-09T08:50:54Z</time>
      </trkpt>
      <trkpt lat="48.59921" lon="1.98774">
        <ele>115.98</ele>
        <time>2021-02-09T08:51:08Z</time>
      </trkpt>
      <trkpt lat="48.59946" lon="1.98766">
        <ele>115.01</ele>
        <time>2021-02-09T08:51:25Z</time>
      </trkpt>
      <trkpt lat="48.59952" lon="1.98764">
        <ele>114.53</ele>
        <time>2021-02-09T08:51:29Z</time>
      </trkpt>
      <trkpt lat="48.59967" lon="1.98755">
        <ele>114.05</ele>
        <time>2021-02-09T08:51:45Z</time>
      </trkpt>
      <trkpt lat="48.59979" lon="1.98754">
        <ele>114.05</ele>
        <time>2021-02-09T08:51:54Z</time>
      </trkpt>
      <trkpt lat="48.60002" lon="1.98747">
        <ele>113.57</ele>
        <time>2021-02-09T08:52:09Z</time>
      </trkpt>
      <trkpt lat="48.60013" lon="1.98744">
        <ele>113.09</ele>
        <time>2021-02-09T08:52:15Z</time>
      </trkpt>
      <trkpt lat="48.60033" lon="1.9874">
        <ele>113.09</ele>
        <time>2021-02-09T08:52:30Z</time>
      </trkpt>
      <trkpt lat="48.60058" lon="1.98731">
        <ele>114.05</ele>
        <time>2021-02-09T08:52:45Z</time>
      </trkpt>
      <trkpt lat="48.60073" lon="1.98722">
        <ele>114.53</ele>
        <time>2021-02-09T08:52:58Z</time>
      </trkpt>
      <trkpt lat="48.60087" lon="1.98706">
        <ele>115.5</ele>
        <time>2021-02-09T08:53:13Z</time>
      </trkpt>
      <trkpt lat="48.60093" lon="1.98702">
        <ele>115.5</ele>
        <time>2021-02-09T08:53:18Z</time>
      </trkpt>
      <trkpt lat="48.60097" lon="1.98699">
        <ele>115.98</ele>
        <time>2021-02-09T08:53:24Z</time>
      </trkpt>
      <trkpt lat="48.601" lon="1.98697">
        <ele>115.98</ele>
        <time>2021-02-09T08:53:26Z</time>
      </trkpt>
      <trkpt lat="48.6011" lon="1.98684">
        <ele>115.98</ele>
        <time>2021-02-09T08:53:36Z</time>
      </trkpt>
      <trkpt lat="48.60132" lon="1.98667">
        <ele>115.5</ele>
        <time>2021-02-09T08:53:52Z</time>
      </trkpt>
      <trkpt lat="48.60133" lon="1.98666">
        <ele>115.5</ele>
        <time>2021-02-09T08:53:53Z</time>
      </trkpt>
      <trkpt lat="48.60137" lon="1.98662">
        <ele>115.5</ele>
        <time>2021-02-09T08:53:57Z</time>
      </trkpt>
      <trkpt lat="48.60159" lon="1.98647">
        <ele>114.53</ele>
        <time>2021-02-09T08:54:11Z</time>
      </trkpt>
      <trkpt lat="48.60178" lon="1.98628">
        <ele>113.09</ele>
        <time>2021-02-09T08:54:26Z</time>
      </trkpt>
      <trkpt lat="48.60197" lon="1.98611">
        <ele>112.13</ele>
        <time>2021-02-09T08:54:41Z</time>
      </trkpt>
      <trkpt lat="48.6021" lon="1.98598">
        <ele>111.65</ele>
        <time>2021-02-09T08:54:52Z</time>
      </trkpt>
      <trkpt lat="48.6022" lon="1.98588">
        <ele>110.69</ele>
        <time>2021-02-09T08:55:03Z</time>
      </trkpt>
      <trkpt lat="48.60226" lon="1.98582">
        <ele>110.69</ele>
        <time>2021-02-09T08:55:08Z</time>
      </trkpt>
      <trkpt lat="48.60237" lon="1.9857">
        <ele>110.69</ele>
        <time>2021-02-09T08:55:18Z</time>
      </trkpt>
      <trkpt lat="48.60257" lon="1.98549">
        <ele>110.21</ele>
        <time>2021-02-09T08:55:30Z</time>
      </trkpt>
      <trkpt lat="48.60266" lon="1.98541">
        <ele>110.21</ele>
        <time>2021-02-09T08:55:36Z</time>
      </trkpt>
      <trkpt lat="48.60275" lon="1.98521">
        <ele>110.21</ele>
        <time>2021-02-09T08:55:45Z</time>
      </trkpt>
      <trkpt lat="48.60282" lon="1.98511">
        <ele>110.21</ele>
        <time>2021-02-09T08:55:53Z</time>
      </trkpt>
      <trkpt lat="48.60288" lon="1.98505">
        <ele>110.69</ele>
        <time>2021-02-09T08:55:58Z</time>
      </trkpt>
      <trkpt lat="48.60293" lon="1.98487">
        <ele>111.17</ele>
        <time>2021-02-09T08:56:08Z</time>
      </trkpt>
      <trkpt lat="48.60309" lon="1.9846">
        <ele>111.65</ele>
        <time>2021-02-09T08:56:25Z</time>
      </trkpt>
      <trkpt lat="48.60318" lon="1.98451">
        <ele>111.17</ele>
        <time>2021-02-09T08:56:34Z</time>
      </trkpt>
      <trkpt lat="48.60334" lon="1.98442">
        <ele>110.69</ele>
        <time>2021-02-09T08:56:43Z</time>
      </trkpt>
      <trkpt lat="48.60351" lon="1.98425">
        <ele>109.73</ele>
        <time>2021-02-09T08:56:57Z</time>
      </trkpt>
      <trkpt lat="48.60353" lon="1.98422">
        <ele>109.25</ele>
        <time>2021-02-09T08:57:01Z</time>
      </trkpt>
      <trkpt lat="48.60366" lon="1.9841">
        <ele>108.29</ele>
        <time>2021-02-09T08:57:12Z</time>
      </trkpt>
      <trkpt lat="48.60388" lon="1.98401">
        <ele>106.84</ele>
        <time>2021-02-09T08:57:27Z</time>
      </trkpt>
      <trkpt lat="48.60406" lon="1.98391">
        <ele>106.36</ele>
        <time>2021-02-09T08:57:41Z</time>
      </trkpt>
      <trkpt lat="48.60425" lon="1.98382">
        <ele>105.4</ele>
        <time>2021-02-09T08:57:57Z</time>
      </trkpt>
      <trkpt lat="48.60426" lon="1.98378">
        <ele>105.4</ele>
        <time>2021-02-09T08:58:12Z</time>
      </trkpt>
      <trkpt lat="48.60425" lon="1.98374">
        <ele>105.4</ele>
        <time>2021-02-09T08:58:26Z</time>
      </trkpt>
      <trkpt lat="48.60441" lon="1.98369">
        <ele>105.4</ele>
        <time>2021-02-09T08:58:38Z</time>
      </trkpt>
      <trkpt lat="48.60453" lon="1.98369">
        <ele>104.92</ele>
        <time>2021-02-09T08:58:49Z</time>
      </trkpt>
      <trkpt lat="48.60462" lon="1.98367">
        <ele>105.4</ele>
        <time>2021-02-09T08:59:02Z</time>
      </trkpt>
      <trkpt lat="48.60486" lon="1.98362">
        <ele>105.4</ele>
        <time>2021-02-09T08:59:16Z</time>
      </trkpt>
      <trkpt lat="48.60492" lon="1.98351">
        <ele>105.4</ele>
        <time>2021-02-09T08:59:34Z</time>
      </trkpt>
      <trkpt lat="48.6052" lon="1.98341">
        <ele>105.4</ele>
        <time>2021-02-09T08:59:43Z</time>
      </trkpt>
      <trkpt lat="48.60506" lon="1.98327">
        <ele>105.4</ele>
        <time>2021-02-09T08:59:56Z</time>
      </trkpt>
      <trkpt lat="48.60498" lon="1.98317">
        <ele>105.4</ele>
        <time>2021-02-09T09:00:03Z</time>
      </trkpt>
      <trkpt lat="48.6049" lon="1.98307">
        <ele>105.4</ele>
        <time>2021-02-09T09:00:09Z</time>
      </trkpt>
      <trkpt lat="48.60483" lon="1.98301">
        <ele>105.4</ele>
        <time>2021-02-09T09:00:14Z</time>
      </trkpt>
      <trkpt lat="48.60476" lon="1.98293">
        <ele>105.88</ele>
        <time>2021-02-09T09:00:20Z</time>
      </trkpt>
      <trkpt lat="48.60469" lon="1.98287">
        <ele>105.4</ele>
        <time>2021-02-09T09:00:26Z</time>
      </trkpt>
      <trkpt lat="48.60465" lon="1.98284">
        <ele>105.4</ele>
        <time>2021-02-09T09:00:29Z</time>
      </trkpt>
      <trkpt lat="48.60461" lon="1.98278">
        <ele>105.4</ele>
        <time>2021-02-09T09:00:32Z</time>
      </trkpt>
      <trkpt lat="48.60455" lon="1.98272">
        <ele>105.4</ele>
        <time>2021-02-09T09:00:37Z</time>
      </trkpt>
      <trkpt lat="48.60442" lon="1.98259">
        <ele>105.4</ele>
        <time>2021-02-09T09:00:48Z</time>
      </trkpt>
      <trkpt lat="48.6044" lon="1.98258">
        <ele>105.4</ele>
        <time>2021-02-09T09:00:50Z</time>
      </trkpt>
      <trkpt lat="48.60429" lon="1.98245">
        <ele>105.4</ele>
        <time>2021-02-09T09:01:00Z</time>
      </trkpt>
      <trkpt lat="48.6041" lon="1.98225">
        <ele>105.4</ele>
        <time>2021-02-09T09:01:13Z</time>
      </trkpt>
      <trkpt lat="48.60399" lon="1.98213">
        <ele>105.4</ele>
        <time>2021-02-09T09:01:23Z</time>
      </trkpt>
      <trkpt lat="48.60381" lon="1.98194">
        <ele>105.88</ele>
        <time>2021-02-09T09:01:38Z</time>
      </trkpt>
      <trkpt lat="48.60365" lon="1.98177">
        <ele>106.36</ele>
        <time>2021-02-09T09:01:51Z</time>
      </trkpt>
      <trkpt lat="48.60362" lon="1.98172">
        <ele>106.84</ele>
        <time>2021-02-09T09:01:54Z</time>
      </trkpt>
      <trkpt lat="48.60348" lon="1.98157">
        <ele>106.84</ele>
        <time>2021-02-09T09:02:06Z</time>
      </trkpt>
      <trkpt lat="48.60347" lon="1.98156">
        <ele>106.84</ele>
        <time>2021-02-09T09:02:09Z</time>
      </trkpt>
      <trkpt lat="48.60344" lon="1.9815">
        <ele>107.32</ele>
        <time>2021-02-09T09:02:21Z</time>
      </trkpt>
      <trkpt lat="48.60344" lon="1.98148">
        <ele>106.84</ele>
        <time>2021-02-09T09:02:28Z</time>
      </trkpt>
      <trkpt lat="48.60348" lon="1.98131">
        <ele>106.84</ele>
        <time>2021-02-09T09:02:38Z</time>
      </trkpt>
      <trkpt lat="48.60357" lon="1.98111">
        <ele>107.32</ele>
        <time>2021-02-09T09:02:48Z</time>
      </trkpt>
      <trkpt lat="48.60359" lon="1.98104">
        <ele>107.32</ele>
        <time>2021-02-09T09:02:51Z</time>
      </trkpt>
      <trkpt lat="48.60364" lon="1.9809">
        <ele>108.29</ele>
        <time>2021-02-09T09:02:58Z</time>
      </trkpt>
      <trkpt lat="48.60367" lon="1.98084">
        <ele>108.29</ele>
        <time>2021-02-09T09:03:01Z</time>
      </trkpt>
      <trkpt lat="48.6038" lon="1.98067">
        <ele>109.25</ele>
        <time>2021-02-09T09:03:13Z</time>
      </trkpt>
      <trkpt lat="48.60388" lon="1.98042">
        <ele>109.73</ele>
        <time>2021-02-09T09:03:25Z</time>
      </trkpt>
      <trkpt lat="48.60391" lon="1.98036">
        <ele>109.73</ele>
        <time>2021-02-09T09:03:28Z</time>
      </trkpt>
      <trkpt lat="48.60395" lon="1.98029">
        <ele>110.21</ele>
        <time>2021-02-09T09:03:32Z</time>
      </trkpt>
      <trkpt lat="48.60397" lon="1.98022">
        <ele>110.21</ele>
        <time>2021-02-09T09:03:36Z</time>
      </trkpt>
      <trkpt lat="48.60401" lon="1.98015">
        <ele>110.69</ele>
        <time>2021-02-09T09:03:41Z</time>
      </trkpt>
      <trkpt lat="48.60414" lon="1.97988">
        <ele>111.17</ele>
        <time>2021-02-09T09:03:55Z</time>
      </trkpt>
      <trkpt lat="48.60417" lon="1.97985">
        <ele>111.17</ele>
        <time>2021-02-09T09:03:57Z</time>
      </trkpt>
      <trkpt lat="48.60419" lon="1.97978">
        <ele>111.17</ele>
        <time>2021-02-09T09:04:01Z</time>
      </trkpt>
      <trkpt lat="48.60425" lon="1.97967">
        <ele>111.17</ele>
        <time>2021-02-09T09:04:07Z</time>
      </trkpt>
      <trkpt lat="48.60433" lon="1.97943">
        <ele>111.65</ele>
        <time>2021-02-09T09:04:19Z</time>
      </trkpt>
      <trkpt lat="48.60437" lon="1.97934">
        <ele>111.65</ele>
        <time>2021-02-09T09:04:31Z</time>
      </trkpt>
      <trkpt lat="48.60438" lon="1.97933">
        <ele>111.65</ele>
        <time>2021-02-09T09:04:32Z</time>
      </trkpt>
      <trkpt lat="48.6044" lon="1.97929">
        <ele>111.65</ele>
        <time>2021-02-09T09:04:35Z</time>
      </trkpt>
      <trkpt lat="48.60446" lon="1.97915">
        <ele>111.65</ele>
        <time>2021-02-09T09:04:44Z</time>
      </trkpt>
      <trkpt lat="48.60452" lon="1.97904">
        <ele>111.65</ele>
        <time>2021-02-09T09:04:50Z</time>
      </trkpt>
      <trkpt lat="48.60456" lon="1.97896">
        <ele>111.65</ele>
        <time>2021-02-09T09:04:55Z</time>
      </trkpt>
      <trkpt lat="48.60469" lon="1.97872">
        <ele>111.65</ele>
        <time>2021-02-09T09:05:09Z</time>
      </trkpt>
      <trkpt lat="48.60473" lon="1.9786">
        <ele>111.65</ele>
        <time>2021-02-09T09:05:15Z</time>
      </trkpt>
      <trkpt lat="48.60478" lon="1.97851">
        <ele>111.65</ele>
        <time>2021-02-09T09:05:21Z</time>
      </trkpt>
      <trkpt lat="48.60489" lon="1.97831">
        <ele>112.13</ele>
        <time>2021-02-09T09:05:34Z</time>
      </trkpt>
      <trkpt lat="48.60492" lon="1.97823">
        <ele>111.65</ele>
        <time>2021-02-09T09:05:38Z</time>
      </trkpt>
      <trkpt lat="48.60495" lon="1.97811">
        <ele>112.13</ele>
        <time>2021-02-09T09:05:44Z</time>
      </trkpt>
      <trkpt lat="48.60498" lon="1.97804">
        <ele>112.13</ele>
        <time>2021-02-09T09:05:48Z</time>
      </trkpt>
      <trkpt lat="48.605" lon="1.97799">
        <ele>112.13</ele>
        <time>2021-02-09T09:05:51Z</time>
      </trkpt>
      <trkpt lat="48.60506" lon="1.97783">
        <ele>112.13</ele>
        <time>2021-02-09T09:05:59Z</time>
      </trkpt>
      <trkpt lat="48.60507" lon="1.9778">
        <ele>112.13</ele>
        <time>2021-02-09T09:06:01Z</time>
      </trkpt>
      <trkpt lat="48.60516" lon="1.97763">
        <ele>112.13</ele>
        <time>2021-02-09T09:06:11Z</time>
      </trkpt>
      <trkpt lat="48.60522" lon="1.97743">
        <ele>112.13</ele>
        <time>2021-02-09T09:06:21Z</time>
      </trkpt>
      <trkpt lat="48.60529" lon="1.97725">
        <ele>111.65</ele>
        <time>2021-02-09T09:06:33Z</time>
      </trkpt>
      <trkpt lat="48.60532" lon="1.97717">
        <ele>111.17</ele>
        <time>2021-02-09T09:06:46Z</time>
      </trkpt>
      <trkpt lat="48.60532" lon="1.97717">
        <ele>111.17</ele>
        <time>2021-02-09T09:07:04Z</time>
      </trkpt>
      <trkpt lat="48.60531" lon="1.97718">
        <ele>111.17</ele>
        <time>2021-02-09T09:07:26Z</time>
      </trkpt>
      <trkpt lat="48.60532" lon="1.97718">
        <ele>110.69</ele>
        <time>2021-02-09T09:07:41Z</time>
      </trkpt>
      <trkpt lat="48.60531" lon="1.97718">
        <ele>110.69</ele>
        <time>2021-02-09T09:08:03Z</time>
      </trkpt>
      <trkpt lat="48.60531" lon="1.97717">
        <ele>110.21</ele>
        <time>2021-02-09T09:08:28Z</time>
      </trkpt>
      <trkpt lat="48.60531" lon="1.97718">
        <ele>110.21</ele>
        <time>2021-02-09T09:08:43Z</time>
      </trkpt>
      <trkpt lat="48.60532" lon="1.97719">
        <ele>110.21</ele>
        <time>2021-02-09T09:09:01Z</time>
      </trkpt>
      <trkpt lat="48.60534" lon="1.97711">
        <ele>110.21</ele>
        <time>2021-02-09T09:09:14Z</time>
      </trkpt>
      <trkpt lat="48.6054" lon="1.9769">
        <ele>109.25</ele>
        <time>2021-02-09T09:09:26Z</time>
      </trkpt>
      <trkpt lat="48.60541" lon="1.97669">
        <ele>109.25</ele>
        <time>2021-02-09T09:09:38Z</time>
      </trkpt>
      <trkpt lat="48.60556" lon="1.97661">
        <ele>107.81</ele>
        <time>2021-02-09T09:09:52Z</time>
      </trkpt>
      <trkpt lat="48.60565" lon="1.97651">
        <ele>107.32</ele>
        <time>2021-02-09T09:10:01Z</time>
      </trkpt>
      <trkpt lat="48.60571" lon="1.9763">
        <ele>106.84</ele>
        <time>2021-02-09T09:10:13Z</time>
      </trkpt>
      <trkpt lat="48.60572" lon="1.97608">
        <ele>106.84</ele>
        <time>2021-02-09T09:10:25Z</time>
      </trkpt>
      <trkpt lat="48.60566" lon="1.97579">
        <ele>106.84</ele>
        <time>2021-02-09T09:10:37Z</time>
      </trkpt>
      <trkpt lat="48.60566" lon="1.97571">
        <ele>107.32</ele>
        <time>2021-02-09T09:10:40Z</time>
      </trkpt>
      <trkpt lat="48.60579" lon="1.97542">
        <ele>107.32</ele>
        <time>2021-02-09T09:10:56Z</time>
      </trkpt>
      <trkpt lat="48.6058" lon="1.9753">
        <ele>107.32</ele>
        <time>2021-02-09T09:11:02Z</time>
      </trkpt>
      <trkpt lat="48.60562" lon="1.97511">
        <ele>107.81</ele>
        <time>2021-02-09T09:11:15Z</time>
      </trkpt>
      <trkpt lat="48.60544" lon="1.97492">
        <ele>108.29</ele>
        <time>2021-02-09T09:11:30Z</time>
      </trkpt>
      <trkpt lat="48.60525" lon="1.97468">
        <ele>108.29</ele>
        <time>2021-02-09T09:11:46Z</time>
      </trkpt>
      <trkpt lat="48.60521" lon="1.97463">
        <ele>108.77</ele>
        <time>2021-02-09T09:11:50Z</time>
      </trkpt>
      <trkpt lat="48.60505" lon="1.97454">
        <ele>108.77</ele>
        <time>2021-02-09T09:12:04Z</time>
      </trkpt>
      <trkpt lat="48.60484" lon="1.97443">
        <ele>109.25</ele>
        <time>2021-02-09T09:12:19Z</time>
      </trkpt>
      <trkpt lat="48.60479" lon="1.97441">
        <ele>109.25</ele>
        <time>2021-02-09T09:12:23Z</time>
      </trkpt>
      <trkpt lat="48.60471" lon="1.97437">
        <ele>109.25</ele>
        <time>2021-02-09T09:12:28Z</time>
      </trkpt>
      <trkpt lat="48.60468" lon="1.97434">
        <ele>109.25</ele>
        <time>2021-02-09T09:12:30Z</time>
      </trkpt>
      <trkpt lat="48.60464" lon="1.97426">
        <ele>109.73</ele>
        <time>2021-02-09T09:12:33Z</time>
      </trkpt>
      <trkpt lat="48.60453" lon="1.97404">
        <ele>110.21</ele>
        <time>2021-02-09T09:12:47Z</time>
      </trkpt>
      <trkpt lat="48.60443" lon="1.97391">
        <ele>110.69</ele>
        <time>2021-02-09T09:12:55Z</time>
      </trkpt>
      <trkpt lat="48.6044" lon="1.97384">
        <ele>110.69</ele>
        <time>2021-02-09T09:12:59Z</time>
      </trkpt>
      <trkpt lat="48.60426" lon="1.97361">
        <ele>111.17</ele>
        <time>2021-02-09T09:13:13Z</time>
      </trkpt>
      <trkpt lat="48.60425" lon="1.97359">
        <ele>111.17</ele>
        <time>2021-02-09T09:13:14Z</time>
      </trkpt>
      <trkpt lat="48.60419" lon="1.97354">
        <ele>111.65</ele>
        <time>2021-02-09T09:13:17Z</time>
      </trkpt>
      <trkpt lat="48.6041" lon="1.97349">
        <ele>111.65</ele>
        <time>2021-02-09T09:13:25Z</time>
      </trkpt>
      <trkpt lat="48.60391" lon="1.9733">
        <ele>113.09</ele>
        <time>2021-02-09T09:13:39Z</time>
      </trkpt>
      <trkpt lat="48.60379" lon="1.97315">
        <ele>114.05</ele>
        <time>2021-02-09T09:13:51Z</time>
      </trkpt>
      <trkpt lat="48.60371" lon="1.97305">
        <ele>115.01</ele>
        <time>2021-02-09T09:14:06Z</time>
      </trkpt>
      <trkpt lat="48.60364" lon="1.97299">
        <ele>115.5</ele>
        <time>2021-02-09T09:14:13Z</time>
      </trkpt>
      <trkpt lat="48.60344" lon="1.97278">
        <ele>116.94</ele>
        <time>2021-02-09T09:14:28Z</time>
      </trkpt>
      <trkpt lat="48.60334" lon="1.97267">
        <ele>117.42</ele>
        <time>2021-02-09T09:14:40Z</time>
      </trkpt>
      <trkpt lat="48.60332" lon="1.97271">
        <ele>117.9</ele>
        <time>2021-02-09T09:15:03Z</time>
      </trkpt>
      <trkpt lat="48.6033" lon="1.97263">
        <ele>117.9</ele>
        <time>2021-02-09T09:15:17Z</time>
      </trkpt>
      <trkpt lat="48.60322" lon="1.97229">
        <ele>118.38</ele>
        <time>2021-02-09T09:15:32Z</time>
      </trkpt>
      <trkpt lat="48.60315" lon="1.97209">
        <ele>118.86</ele>
        <time>2021-02-09T09:15:45Z</time>
      </trkpt>
      <trkpt lat="48.60311" lon="1.97205">
        <ele>118.86</ele>
        <time>2021-02-09T09:15:48Z</time>
      </trkpt>
      <trkpt lat="48.60303" lon="1.97197">
        <ele>119.34</ele>
        <time>2021-02-09T09:15:54Z</time>
      </trkpt>
      <trkpt lat="48.603" lon="1.97194">
        <ele>119.82</ele>
        <time>2021-02-09T09:15:56Z</time>
      </trkpt>
      <trkpt lat="48.60286" lon="1.97177">
        <ele>120.78</ele>
        <time>2021-02-09T09:16:08Z</time>
      </trkpt>
      <trkpt lat="48.60282" lon="1.97154">
        <ele>120.78</ele>
        <time>2021-02-09T09:16:21Z</time>
      </trkpt>
      <trkpt lat="48.6028" lon="1.97144">
        <ele>120.78</ele>
        <time>2021-02-09T09:16:26Z</time>
      </trkpt>
      <trkpt lat="48.60279" lon="1.97135">
        <ele>120.78</ele>
        <time>2021-02-09T09:16:30Z</time>
      </trkpt>
      <trkpt lat="48.60272" lon="1.97118">
        <ele>121.26</ele>
        <time>2021-02-09T09:16:40Z</time>
      </trkpt>
      <trkpt lat="48.60267" lon="1.97114">
        <ele>121.26</ele>
        <time>2021-02-09T09:16:44Z</time>
      </trkpt>
      <trkpt lat="48.60254" lon="1.97103">
        <ele>122.22</ele>
        <time>2021-02-09T09:16:59Z</time>
      </trkpt>
      <trkpt lat="48.60255" lon="1.97101">
        <ele>122.22</ele>
        <time>2021-02-09T09:17:12Z</time>
      </trkpt>
      <trkpt lat="48.60255" lon="1.971">
        <ele>122.22</ele>
        <time>2021-02-09T09:17:36Z</time>
      </trkpt>
      <trkpt lat="48.60255" lon="1.97099">
        <ele>122.22</ele>
        <time>2021-02-09T09:17:50Z</time>
      </trkpt>
      <trkpt lat="48.60256" lon="1.97098">
        <ele>122.71</ele>
        <time>2021-02-09T09:18:01Z</time>
      </trkpt>
      <trkpt lat="48.60257" lon="1.97098">
        <ele>122.71</ele>
        <time>2021-02-09T09:18:14Z</time>
      </trkpt>
      <trkpt lat="48.60256" lon="1.97097">
        <ele>122.22</ele>
        <time>2021-02-09T09:18:38Z</time>
      </trkpt>
      <trkpt lat="48.60259" lon="1.97096">
        <ele>122.22</ele>
        <time>2021-02-09T09:18:54Z</time>
      </trkpt>
      <trkpt lat="48.60262" lon="1.97081">
        <ele>121.26</ele>
        <time>2021-02-09T09:19:03Z</time>
      </trkpt>
      <trkpt lat="48.60277" lon="1.97045">
        <ele>119.34</ele>
        <time>2021-02-09T09:19:21Z</time>
      </trkpt>
      <trkpt lat="48.60302" lon="1.97049">
        <ele>117.42</ele>
        <time>2021-02-09T09:19:43Z</time>
      </trkpt>
      <trkpt lat="48.60315" lon="1.97094">
        <ele>117.42</ele>
        <time>2021-02-09T09:20:00Z</time>
      </trkpt>
      <trkpt lat="48.60323" lon="1.97105">
        <ele>117.42</ele>
        <time>2021-02-09T09:20:07Z</time>
      </trkpt>
      <trkpt lat="48.60337" lon="1.97125">
        <ele>116.46</ele>
        <time>2021-02-09T09:20:23Z</time>
      </trkpt>
      <trkpt lat="48.60343" lon="1.97135">
        <ele>116.46</ele>
        <time>2021-02-09T09:20:29Z</time>
      </trkpt>
      <trkpt lat="48.60368" lon="1.97164">
        <ele>115.98</ele>
        <time>2021-02-09T09:20:46Z</time>
      </trkpt>
      <trkpt lat="48.60372" lon="1.97168">
        <ele>115.98</ele>
        <time>2021-02-09T09:20:50Z</time>
      </trkpt>
      <trkpt lat="48.60381" lon="1.97181">
        <ele>116.94</ele>
        <time>2021-02-09T09:20:58Z</time>
      </trkpt>
      <trkpt lat="48.60399" lon="1.97211">
        <ele>114.53</ele>
        <time>2021-02-09T09:21:15Z</time>
      </trkpt>
      <trkpt lat="48.60422" lon="1.97238">
        <ele>113.57</ele>
        <time>2021-02-09T09:21:32Z</time>
      </trkpt>
      <trkpt lat="48.60428" lon="1.97245">
        <ele>113.09</ele>
        <time>2021-02-09T09:21:37Z</time>
      </trkpt>
      <trkpt lat="48.60455" lon="1.97266">
        <ele>112.13</ele>
        <time>2021-02-09T09:21:56Z</time>
      </trkpt>
      <trkpt lat="48.60486" lon="1.97276">
        <ele>111.17</ele>
        <time>2021-02-09T09:22:14Z</time>
      </trkpt>
      <trkpt lat="48.60512" lon="1.97287">
        <ele>109.25</ele>
        <time>2021-02-09T09:22:33Z</time>
      </trkpt>
      <trkpt lat="48.60526" lon="1.973">
        <ele>108.29</ele>
        <time>2021-02-09T09:22:49Z</time>
      </trkpt>
      <trkpt lat="48.60549" lon="1.97315">
        <ele>107.32</ele>
        <time>2021-02-09T09:23:06Z</time>
      </trkpt>
      <trkpt lat="48.60572" lon="1.97345">
        <ele>105.88</ele>
        <time>2021-02-09T09:23:24Z</time>
      </trkpt>
      <trkpt lat="48.60588" lon="1.97362">
        <ele>105.4</ele>
        <time>2021-02-09T09:23:40Z</time>
      </trkpt>
      <trkpt lat="48.60606" lon="1.97388">
        <ele>104.44</ele>
        <time>2021-02-09T09:23:55Z</time>
      </trkpt>
      <trkpt lat="48.60624" lon="1.97413">
        <ele>103</ele>
        <time>2021-02-09T09:24:11Z</time>
      </trkpt>
      <trkpt lat="48.6064" lon="1.97436">
        <ele>102.52</ele>
        <time>2021-02-09T09:24:26Z</time>
      </trkpt>
      <trkpt lat="48.60655" lon="1.97459">
        <ele>102.04</ele>
        <time>2021-02-09T09:24:43Z</time>
      </trkpt>
      <trkpt lat="48.60674" lon="1.97471">
        <ele>101.08</ele>
        <time>2021-02-09T09:24:59Z</time>
      </trkpt>
      <trkpt lat="48.607" lon="1.97473">
        <ele>99.63</ele>
        <time>2021-02-09T09:25:15Z</time>
      </trkpt>
      <trkpt lat="48.60708" lon="1.97461">
        <ele>98.67</ele>
        <time>2021-02-09T09:25:31Z</time>
      </trkpt>
      <trkpt lat="48.60718" lon="1.97453">
        <ele>98.19</ele>
        <time>2021-02-09T09:25:47Z</time>
      </trkpt>
      <trkpt lat="48.60737" lon="1.97452">
        <ele>97.71</ele>
        <time>2021-02-09T09:26:07Z</time>
      </trkpt>
      <trkpt lat="48.60758" lon="1.97453">
        <ele>97.23</ele>
        <time>2021-02-09T09:26:29Z</time>
      </trkpt>
      <trkpt lat="48.60759" lon="1.97452">
        <ele>97.23</ele>
        <time>2021-02-09T09:26:55Z</time>
      </trkpt>
      <trkpt lat="48.60762" lon="1.97452">
        <ele>96.75</ele>
        <time>2021-02-09T09:27:17Z</time>
      </trkpt>
      <trkpt lat="48.60761" lon="1.97449">
        <ele>96.75</ele>
        <time>2021-02-09T09:27:42Z</time>
      </trkpt>
      <trkpt lat="48.60757" lon="1.97449">
        <ele>96.27</ele>
        <time>2021-02-09T09:28:04Z</time>
      </trkpt>
      <trkpt lat="48.60756" lon="1.97448">
        <ele>96.27</ele>
        <time>2021-02-09T09:28:27Z</time>
      </trkpt>
      <trkpt lat="48.60756" lon="1.97449">
        <ele>96.27</ele>
        <time>2021-02-09T09:28:52Z</time>
      </trkpt>
      <trkpt lat="48.60756" lon="1.97449">
        <ele>95.79</ele>
        <time>2021-02-09T09:29:18Z</time>
      </trkpt>
      <trkpt lat="48.60757" lon="1.97443">
        <ele>95.79</ele>
        <time>2021-02-09T09:29:35Z</time>
      </trkpt>
      <trkpt lat="48.60742" lon="1.97422">
        <ele>95.79</ele>
        <time>2021-02-09T09:29:52Z</time>
      </trkpt>
      <trkpt lat="48.60725" lon="1.97406">
        <ele>96.75</ele>
        <time>2021-02-09T09:30:07Z</time>
      </trkpt>
      <trkpt lat="48.60719" lon="1.97378">
        <ele>96.75</ele>
        <time>2021-02-09T09:30:26Z</time>
      </trkpt>
      <trkpt lat="48.60717" lon="1.97366">
        <ele>96.75</ele>
        <time>2021-02-09T09:30:41Z</time>
      </trkpt>
      <trkpt lat="48.6071" lon="1.97334">
        <ele>97.71</ele>
        <time>2021-02-09T09:30:56Z</time>
      </trkpt>
      <trkpt lat="48.60701" lon="1.97288">
        <ele>97.71</ele>
        <time>2021-02-09T09:31:13Z</time>
      </trkpt>
      <trkpt lat="48.607" lon="1.97244">
        <ele>97.71</ele>
        <time>2021-02-09T09:31:31Z</time>
      </trkpt>
      <trkpt lat="48.60705" lon="1.97199">
        <ele>97.71</ele>
        <time>2021-02-09T09:31:47Z</time>
      </trkpt>
      <trkpt lat="48.60708" lon="1.97177">
        <ele>98.19</ele>
        <time>2021-02-09T09:32:02Z</time>
      </trkpt>
      <trkpt lat="48.60706" lon="1.97136">
        <ele>98.67</ele>
        <time>2021-02-09T09:32:21Z</time>
      </trkpt>
      <trkpt lat="48.60688" lon="1.97095">
        <ele>99.63</ele>
        <time>2021-02-09T09:32:36Z</time>
      </trkpt>
      <trkpt lat="48.60686" lon="1.97093">
        <ele>100.11</ele>
        <time>2021-02-09T09:32:37Z</time>
      </trkpt>
      <trkpt lat="48.60668" lon="1.97072">
        <ele>101.08</ele>
        <time>2021-02-09T09:32:51Z</time>
      </trkpt>
      <trkpt lat="48.60652" lon="1.97055">
        <ele>102.52</ele>
        <time>2021-02-09T09:33:06Z</time>
      </trkpt>
      <trkpt lat="48.60643" lon="1.97049">
        <ele>103.48</ele>
        <time>2021-02-09T09:33:14Z</time>
      </trkpt>
      <trkpt lat="48.60635" lon="1.97045">
        <ele>103.48</ele>
        <time>2021-02-09T09:33:19Z</time>
      </trkpt>
      <trkpt lat="48.60619" lon="1.97022">
        <ele>104.92</ele>
        <time>2021-02-09T09:33:35Z</time>
      </trkpt>
      <trkpt lat="48.60601" lon="1.97001">
        <ele>105.4</ele>
        <time>2021-02-09T09:33:50Z</time>
      </trkpt>
      <trkpt lat="48.60594" lon="1.96989">
        <ele>105.88</ele>
        <time>2021-02-09T09:33:57Z</time>
      </trkpt>
      <trkpt lat="48.60576" lon="1.96974">
        <ele>108.29</ele>
        <time>2021-02-09T09:34:12Z</time>
      </trkpt>
      <trkpt lat="48.60558" lon="1.96954">
        <ele>110.21</ele>
        <time>2021-02-09T09:34:29Z</time>
      </trkpt>
      <trkpt lat="48.6054" lon="1.96931">
        <ele>113.57</ele>
        <time>2021-02-09T09:34:45Z</time>
      </trkpt>
      <trkpt lat="48.60522" lon="1.96916">
        <ele>116.46</ele>
        <time>2021-02-09T09:35:00Z</time>
      </trkpt>
      <trkpt lat="48.60512" lon="1.96904">
        <ele>118.86</ele>
        <time>2021-02-09T09:35:12Z</time>
      </trkpt>
      <trkpt lat="48.60494" lon="1.96887">
        <ele>120.78</ele>
        <time>2021-02-09T09:35:27Z</time>
      </trkpt>
      <trkpt lat="48.60482" lon="1.96877">
        <ele>121.74</ele>
        <time>2021-02-09T09:35:35Z</time>
      </trkpt>
      <trkpt lat="48.60467" lon="1.96864">
        <ele>125.11</ele>
        <time>2021-02-09T09:35:50Z</time>
      </trkpt>
      <trkpt lat="48.60449" lon="1.96841">
        <ele>127.03</ele>
        <time>2021-02-09T09:36:06Z</time>
      </trkpt>
      <trkpt lat="48.60435" lon="1.96828">
        <ele>127.51</ele>
        <time>2021-02-09T09:36:22Z</time>
      </trkpt>
      <trkpt lat="48.6042" lon="1.96816">
        <ele>127.51</ele>
        <time>2021-02-09T09:36:35Z</time>
      </trkpt>
      <trkpt lat="48.60401" lon="1.9679">
        <ele>128.47</ele>
        <time>2021-02-09T09:36:50Z</time>
      </trkpt>
      <trkpt lat="48.60398" lon="1.9679">
        <ele>127.99</ele>
        <time>2021-02-09T09:37:10Z</time>
      </trkpt>
      <trkpt lat="48.60398" lon="1.96791">
        <ele>127.99</ele>
        <time>2021-02-09T09:37:38Z</time>
      </trkpt>
      <trkpt lat="48.60399" lon="1.96792">
        <ele>127.99</ele>
        <time>2021-02-09T09:37:56Z</time>
      </trkpt>
      <trkpt lat="48.60399" lon="1.96793">
        <ele>127.99</ele>
        <time>2021-02-09T09:38:14Z</time>
      </trkpt>
      <trkpt lat="48.60397" lon="1.96793">
        <ele>127.51</ele>
        <time>2021-02-09T09:38:37Z</time>
      </trkpt>
      <trkpt lat="48.60397" lon="1.96794">
        <ele>127.99</ele>
        <time>2021-02-09T09:38:54Z</time>
      </trkpt>
      <trkpt lat="48.60397" lon="1.96794">
        <ele>127.99</ele>
        <time>2021-02-09T09:39:09Z</time>
      </trkpt>
      <trkpt lat="48.604" lon="1.96792">
        <ele>127.51</ele>
        <time>2021-02-09T09:39:37Z</time>
      </trkpt>
      <trkpt lat="48.604" lon="1.96793">
        <ele>127.51</ele>
        <time>2021-02-09T09:39:55Z</time>
      </trkpt>
      <trkpt lat="48.60397" lon="1.96795">
        <ele>127.51</ele>
        <time>2021-02-09T09:40:21Z</time>
      </trkpt>
      <trkpt lat="48.60392" lon="1.9679">
        <ele>127.51</ele>
        <time>2021-02-09T09:40:40Z</time>
      </trkpt>
      <trkpt lat="48.60374" lon="1.96765">
        <ele>127.51</ele>
        <time>2021-02-09T09:40:56Z</time>
      </trkpt>
      <trkpt lat="48.60361" lon="1.96743">
        <ele>127.03</ele>
        <time>2021-02-09T09:41:11Z</time>
      </trkpt>
      <trkpt lat="48.60337" lon="1.96728">
        <ele>126.07</ele>
        <time>2021-02-09T09:41:24Z</time>
      </trkpt>
      <trkpt lat="48.6032" lon="1.9671">
        <ele>124.15</ele>
        <time>2021-02-09T09:41:38Z</time>
      </trkpt>
      <trkpt lat="48.60311" lon="1.96678">
        <ele>123.19</ele>
        <time>2021-02-09T09:41:53Z</time>
      </trkpt>
      <trkpt lat="48.60301" lon="1.96655">
        <ele>121.74</ele>
        <time>2021-02-09T09:42:06Z</time>
      </trkpt>
      <trkpt lat="48.60299" lon="1.96639">
        <ele>121.74</ele>
        <time>2021-02-09T09:42:21Z</time>
      </trkpt>
      <trkpt lat="48.60302" lon="1.96602">
        <ele>123.19</ele>
        <time>2021-02-09T09:42:37Z</time>
      </trkpt>
      <trkpt lat="48.60298" lon="1.96554">
        <ele>124.15</ele>
        <time>2021-02-09T09:42:55Z</time>
      </trkpt>
      <trkpt lat="48.60299" lon="1.96531">
        <ele>125.11</ele>
        <time>2021-02-09T09:43:13Z</time>
      </trkpt>
      <trkpt lat="48.60296" lon="1.96507">
        <ele>124.15</ele>
        <time>2021-02-09T09:43:26Z</time>
      </trkpt>
      <trkpt lat="48.60281" lon="1.96476">
        <ele>122.22</ele>
        <time>2021-02-09T09:43:41Z</time>
      </trkpt>
      <trkpt lat="48.60281" lon="1.96473">
        <ele>122.22</ele>
        <time>2021-02-09T09:43:42Z</time>
      </trkpt>
      <trkpt lat="48.60286" lon="1.96441">
        <ele>122.71</ele>
        <time>2021-02-09T09:43:58Z</time>
      </trkpt>
      <trkpt lat="48.60297" lon="1.9642">
        <ele>123.19</ele>
        <time>2021-02-09T09:44:14Z</time>
      </trkpt>
      <trkpt lat="48.60301" lon="1.96382">
        <ele>124.63</ele>
        <time>2021-02-09T09:44:30Z</time>
      </trkpt>
      <trkpt lat="48.60306" lon="1.96374">
        <ele>125.11</ele>
        <time>2021-02-09T09:44:40Z</time>
      </trkpt>
      <trkpt lat="48.60311" lon="1.9634">
        <ele>125.11</ele>
        <time>2021-02-09T09:44:56Z</time>
      </trkpt>
      <trkpt lat="48.60309" lon="1.96336">
        <ele>125.11</ele>
        <time>2021-02-09T09:44:58Z</time>
      </trkpt>
      <trkpt lat="48.60301" lon="1.96308">
        <ele>125.11</ele>
        <time>2021-02-09T09:45:13Z</time>
      </trkpt>
      <trkpt lat="48.60292" lon="1.96285">
        <ele>125.11</ele>
        <time>2021-02-09T09:45:26Z</time>
      </trkpt>
      <trkpt lat="48.60275" lon="1.96252">
        <ele>125.59</ele>
        <time>2021-02-09T09:45:44Z</time>
      </trkpt>
      <trkpt lat="48.60264" lon="1.96224">
        <ele>126.55</ele>
        <time>2021-02-09T09:45:59Z</time>
      </trkpt>
      <trkpt lat="48.60262" lon="1.96216">
        <ele>127.03</ele>
        <time>2021-02-09T09:46:03Z</time>
      </trkpt>
      <trkpt lat="48.60253" lon="1.96193">
        <ele>127.51</ele>
        <time>2021-02-09T09:46:19Z</time>
      </trkpt>
      <trkpt lat="48.60245" lon="1.9617">
        <ele>127.51</ele>
        <time>2021-02-09T09:46:34Z</time>
      </trkpt>
      <trkpt lat="48.60235" lon="1.96142">
        <ele>127.51</ele>
        <time>2021-02-09T09:46:47Z</time>
      </trkpt>
      <trkpt lat="48.60227" lon="1.9612">
        <ele>127.03</ele>
        <time>2021-02-09T09:47:03Z</time>
      </trkpt>
      <trkpt lat="48.60223" lon="1.96112">
        <ele>125.11</ele>
        <time>2021-02-09T09:47:11Z</time>
      </trkpt>
      <trkpt lat="48.60217" lon="1.96099">
        <ele>122.22</ele>
        <time>2021-02-09T09:47:20Z</time>
      </trkpt>
      <trkpt lat="48.60222" lon="1.96079">
        <ele>119.34</ele>
        <time>2021-02-09T09:47:31Z</time>
      </trkpt>
      <trkpt lat="48.60226" lon="1.96042">
        <ele>116.94</ele>
        <time>2021-02-09T09:47:45Z</time>
      </trkpt>
      <trkpt lat="48.6023" lon="1.96018">
        <ele>114.53</ele>
        <time>2021-02-09T09:47:56Z</time>
      </trkpt>
      <trkpt lat="48.60227" lon="1.96003">
        <ele>111.17</ele>
        <time>2021-02-09T09:48:08Z</time>
      </trkpt>
      <trkpt lat="48.60226" lon="1.96001">
        <ele>111.17</ele>
        <time>2021-02-09T09:48:09Z</time>
      </trkpt>
      <trkpt lat="48.60227" lon="1.95974">
        <ele>108.29</ele>
        <time>2021-02-09T09:48:24Z</time>
      </trkpt>
      <trkpt lat="48.60228" lon="1.95972">
        <ele>107.81</ele>
        <time>2021-02-09T09:48:27Z</time>
      </trkpt>
      <trkpt lat="48.60232" lon="1.95943">
        <ele>104.44</ele>
        <time>2021-02-09T09:48:40Z</time>
      </trkpt>
      <trkpt lat="48.60235" lon="1.9592">
        <ele>101.56</ele>
        <time>2021-02-09T09:48:53Z</time>
      </trkpt>
      <trkpt lat="48.60238" lon="1.95891">
        <ele>99.15</ele>
        <time>2021-02-09T09:49:07Z</time>
      </trkpt>
      <trkpt lat="48.6024" lon="1.9587">
        <ele>97.71</ele>
        <time>2021-02-09T09:49:24Z</time>
      </trkpt>
      <trkpt lat="48.6024" lon="1.95863">
        <ele>97.71</ele>
        <time>2021-02-09T09:49:40Z</time>
      </trkpt>
      <trkpt lat="48.6024" lon="1.95861">
        <ele>97.71</ele>
        <time>2021-02-09T09:50:02Z</time>
      </trkpt>
      <trkpt lat="48.60242" lon="1.9586">
        <ele>97.71</ele>
        <time>2021-02-09T09:50:21Z</time>
      </trkpt>
      <trkpt lat="48.60256" lon="1.95833">
        <ele>96.75</ele>
        <time>2021-02-09T09:50:39Z</time>
      </trkpt>
      <trkpt lat="48.60271" lon="1.95799">
        <ele>96.27</ele>
        <time>2021-02-09T09:50:56Z</time>
      </trkpt>
      <trkpt lat="48.60281" lon="1.95809">
        <ele>95.79</ele>
        <time>2021-02-09T09:51:13Z</time>
      </trkpt>
      <trkpt lat="48.60295" lon="1.95827">
        <ele>95.31</ele>
        <time>2021-02-09T09:51:30Z</time>
      </trkpt>
      <trkpt lat="48.6032" lon="1.95846">
        <ele>95.79</ele>
        <time>2021-02-09T09:51:46Z</time>
      </trkpt>
      <trkpt lat="48.60329" lon="1.95851">
        <ele>94.83</ele>
        <time>2021-02-09T09:52:03Z</time>
      </trkpt>
      <trkpt lat="48.60358" lon="1.95857">
        <ele>94.83</ele>
        <time>2021-02-09T09:52:16Z</time>
      </trkpt>
      <trkpt lat="48.60375" lon="1.95861">
        <ele>93.87</ele>
        <time>2021-02-09T09:52:32Z</time>
      </trkpt>
      <trkpt lat="48.60397" lon="1.95863">
        <ele>93.87</ele>
        <time>2021-02-09T09:52:49Z</time>
      </trkpt>
      <trkpt lat="48.60423" lon="1.95871">
        <ele>93.39</ele>
        <time>2021-02-09T09:53:04Z</time>
      </trkpt>
      <trkpt lat="48.60459" lon="1.95884">
        <ele>92.9</ele>
        <time>2021-02-09T09:53:20Z</time>
      </trkpt>
      <trkpt lat="48.60476" lon="1.95892">
        <ele>93.39</ele>
        <time>2021-02-09T09:53:34Z</time>
      </trkpt>
      <trkpt lat="48.605" lon="1.9591">
        <ele>92.9</ele>
        <time>2021-02-09T09:53:51Z</time>
      </trkpt>
      <trkpt lat="48.60528" lon="1.95935">
        <ele>92.9</ele>
        <time>2021-02-09T09:54:11Z</time>
      </trkpt>
      <trkpt lat="48.60543" lon="1.95956">
        <ele>92.42</ele>
        <time>2021-02-09T09:54:28Z</time>
      </trkpt>
      <trkpt lat="48.60549" lon="1.95969">
        <ele>92.42</ele>
        <time>2021-02-09T09:54:43Z</time>
      </trkpt>
      <trkpt lat="48.60591" lon="1.95999">
        <ele>92.42</ele>
        <time>2021-02-09T09:55:00Z</time>
      </trkpt>
      <trkpt lat="48.60602" lon="1.96012">
        <ele>93.87</ele>
        <time>2021-02-09T09:55:17Z</time>
      </trkpt>
      <trkpt lat="48.60646" lon="1.96">
        <ele>91.94</ele>
        <time>2021-02-09T09:55:34Z</time>
      </trkpt>
      <trkpt lat="48.60664" lon="1.95986">
        <ele>91.94</ele>
        <time>2021-02-09T09:55:50Z</time>
      </trkpt>
      <trkpt lat="48.60674" lon="1.95967">
        <ele>90.5</ele>
        <time>2021-02-09T09:56:05Z</time>
      </trkpt>
      <trkpt lat="48.6067" lon="1.95941">
        <ele>91.46</ele>
        <time>2021-02-09T09:56:22Z</time>
      </trkpt>
      <trkpt lat="48.60671" lon="1.95943">
        <ele>91.46</ele>
        <time>2021-02-09T09:56:40Z</time>
      </trkpt>
      <trkpt lat="48.60671" lon="1.95944">
        <ele>91.94</ele>
        <time>2021-02-09T09:57:03Z</time>
      </trkpt>
      <trkpt lat="48.60671" lon="1.95944">
        <ele>91.94</ele>
        <time>2021-02-09T09:57:18Z</time>
      </trkpt>
      <trkpt lat="48.60666" lon="1.9594">
        <ele>91.94</ele>
        <time>2021-02-09T09:57:36Z</time>
      </trkpt>
      <trkpt lat="48.6067" lon="1.95918">
        <ele>91.94</ele>
        <time>2021-02-09T09:57:50Z</time>
      </trkpt>
      <trkpt lat="48.60687" lon="1.95881">
        <ele>92.42</ele>
        <time>2021-02-09T09:58:12Z</time>
      </trkpt>
      <trkpt lat="48.60697" lon="1.95853">
        <ele>92.9</ele>
        <time>2021-02-09T09:58:28Z</time>
      </trkpt>
      <trkpt lat="48.60695" lon="1.95816">
        <ele>94.83</ele>
        <time>2021-02-09T09:58:48Z</time>
      </trkpt>
      <trkpt lat="48.60704" lon="1.95783">
        <ele>92.9</ele>
        <time>2021-02-09T09:59:07Z</time>
      </trkpt>
      <trkpt lat="48.60704" lon="1.95779">
        <ele>92.9</ele>
        <time>2021-02-09T09:59:09Z</time>
      </trkpt>
      <trkpt lat="48.60692" lon="1.9574">
        <ele>93.87</ele>
        <time>2021-02-09T09:59:26Z</time>
      </trkpt>
      <trkpt lat="48.60687" lon="1.95704">
        <ele>93.87</ele>
        <time>2021-02-09T09:59:44Z</time>
      </trkpt>
      <trkpt lat="48.60686" lon="1.95671">
        <ele>93.87</ele>
        <time>2021-02-09T10:00:03Z</time>
      </trkpt>
      <trkpt lat="48.60665" lon="1.95652">
        <ele>94.83</ele>
        <time>2021-02-09T10:00:22Z</time>
      </trkpt>
      <trkpt lat="48.60643" lon="1.95647">
        <ele>94.83</ele>
        <time>2021-02-09T10:00:41Z</time>
      </trkpt>
      <trkpt lat="48.60628" lon="1.95625">
        <ele>95.31</ele>
        <time>2021-02-09T10:00:58Z</time>
      </trkpt>
      <trkpt lat="48.60612" lon="1.95598">
        <ele>95.31</ele>
        <time>2021-02-09T10:01:15Z</time>
      </trkpt>
      <trkpt lat="48.60608" lon="1.95581">
        <ele>94.83</ele>
        <time>2021-02-09T10:01:31Z</time>
      </trkpt>
      <trkpt lat="48.60604" lon="1.95532">
        <ele>95.31</ele>
        <time>2021-02-09T10:01:48Z</time>
      </trkpt>
      <trkpt lat="48.60602" lon="1.95493">
        <ele>95.31</ele>
        <time>2021-02-09T10:02:07Z</time>
      </trkpt>
      <trkpt lat="48.60597" lon="1.95457">
        <ele>95.31</ele>
        <time>2021-02-09T10:02:25Z</time>
      </trkpt>
      <trkpt lat="48.60588" lon="1.95426">
        <ele>95.79</ele>
        <time>2021-02-09T10:02:41Z</time>
      </trkpt>
      <trkpt lat="48.60586" lon="1.954">
        <ele>96.27</ele>
        <time>2021-02-09T10:02:57Z</time>
      </trkpt>
      <trkpt lat="48.6058" lon="1.95358">
        <ele>96.27</ele>
        <time>2021-02-09T10:03:13Z</time>
      </trkpt>
      <trkpt lat="48.60575" lon="1.95335">
        <ele>96.75</ele>
        <time>2021-02-09T10:03:29Z</time>
      </trkpt>
      <trkpt lat="48.60571" lon="1.95291">
        <ele>96.27</ele>
        <time>2021-02-09T10:03:47Z</time>
      </trkpt>
      <trkpt lat="48.60572" lon="1.95253">
        <ele>97.23</ele>
        <time>2021-02-09T10:04:02Z</time>
      </trkpt>
      <trkpt lat="48.60575" lon="1.95214">
        <ele>97.71</ele>
        <time>2021-02-09T10:04:21Z</time>
      </trkpt>
      <trkpt lat="48.60572" lon="1.95196">
        <ele>97.71</ele>
        <time>2021-02-09T10:04:39Z</time>
      </trkpt>
      <trkpt lat="48.60571" lon="1.95193">
        <ele>98.19</ele>
        <time>2021-02-09T10:05:05Z</time>
      </trkpt>
      <trkpt lat="48.60573" lon="1.9519">
        <ele>98.19</ele>
        <time>2021-02-09T10:05:29Z</time>
      </trkpt>
      <trkpt lat="48.6058" lon="1.95167">
        <ele>98.67</ele>
        <time>2021-02-09T10:05:48Z</time>
      </trkpt>
      <trkpt lat="48.60593" lon="1.95141">
        <ele>99.15</ele>
        <time>2021-02-09T10:06:06Z</time>
      </trkpt>
      <trkpt lat="48.60605" lon="1.95116">
        <ele>99.63</ele>
        <time>2021-02-09T10:06:24Z</time>
      </trkpt>
      <trkpt lat="48.60615" lon="1.95094">
        <ele>99.15</ele>
        <time>2021-02-09T10:06:39Z</time>
      </trkpt>
      <trkpt lat="48.60625" lon="1.95071">
        <ele>98.67</ele>
        <time>2021-02-09T10:06:53Z</time>
      </trkpt>
      <trkpt lat="48.6064" lon="1.95043">
        <ele>98.19</ele>
        <time>2021-02-09T10:07:09Z</time>
      </trkpt>
      <trkpt lat="48.60653" lon="1.95017">
        <ele>98.19</ele>
        <time>2021-02-09T10:07:26Z</time>
      </trkpt>
      <trkpt lat="48.60665" lon="1.94999">
        <ele>98.19</ele>
        <time>2021-02-09T10:07:41Z</time>
      </trkpt>
      <trkpt lat="48.60667" lon="1.94991">
        <ele>98.19</ele>
        <time>2021-02-09T10:07:58Z</time>
      </trkpt>
      <trkpt lat="48.60667" lon="1.94979">
        <ele>98.19</ele>
        <time>2021-02-09T10:08:16Z</time>
      </trkpt>
      <trkpt lat="48.60663" lon="1.94972">
        <ele>98.19</ele>
        <time>2021-02-09T10:08:40Z</time>
      </trkpt>
      <trkpt lat="48.60646" lon="1.94972">
        <ele>98.19</ele>
        <time>2021-02-09T10:08:57Z</time>
      </trkpt>
      <trkpt lat="48.60616" lon="1.94986">
        <ele>98.19</ele>
        <time>2021-02-09T10:09:14Z</time>
      </trkpt>
      <trkpt lat="48.60601" lon="1.94991">
        <ele>97.71</ele>
        <time>2021-02-09T10:09:29Z</time>
      </trkpt>
      <trkpt lat="48.60581" lon="1.95003">
        <ele>98.19</ele>
        <time>2021-02-09T10:09:46Z</time>
      </trkpt>
      <trkpt lat="48.60556" lon="1.95018">
        <ele>98.67</ele>
        <time>2021-02-09T10:10:05Z</time>
      </trkpt>
      <trkpt lat="48.60539" lon="1.95028">
        <ele>99.15</ele>
        <time>2021-02-09T10:10:21Z</time>
      </trkpt>
      <trkpt lat="48.60537" lon="1.95029">
        <ele>99.15</ele>
        <time>2021-02-09T10:10:22Z</time>
      </trkpt>
      <trkpt lat="48.60516" lon="1.9504">
        <ele>99.15</ele>
        <time>2021-02-09T10:10:39Z</time>
      </trkpt>
      <trkpt lat="48.60492" lon="1.95054">
        <ele>99.15</ele>
        <time>2021-02-09T10:10:53Z</time>
      </trkpt>
      <trkpt lat="48.60471" lon="1.95063">
        <ele>99.15</ele>
        <time>2021-02-09T10:11:08Z</time>
      </trkpt>
      <trkpt lat="48.60457" lon="1.95069">
        <ele>99.15</ele>
        <time>2021-02-09T10:11:22Z</time>
      </trkpt>
      <trkpt lat="48.60434" lon="1.95081">
        <ele>99.15</ele>
        <time>2021-02-09T10:11:40Z</time>
      </trkpt>
      <trkpt lat="48.60408" lon="1.95096">
        <ele>99.63</ele>
        <time>2021-02-09T10:11:58Z</time>
      </trkpt>
      <trkpt lat="48.60384" lon="1.95105">
        <ele>100.11</ele>
        <time>2021-02-09T10:12:16Z</time>
      </trkpt>
      <trkpt lat="48.6036" lon="1.95119">
        <ele>100.11</ele>
        <time>2021-02-09T10:12:35Z</time>
      </trkpt>
      <trkpt lat="48.60341" lon="1.95129">
        <ele>99.63</ele>
        <time>2021-02-09T10:12:51Z</time>
      </trkpt>
      <trkpt lat="48.60312" lon="1.95145">
        <ele>99.63</ele>
        <time>2021-02-09T10:13:12Z</time>
      </trkpt>
      <trkpt lat="48.60291" lon="1.95152">
        <ele>100.11</ele>
        <time>2021-02-09T10:13:29Z</time>
      </trkpt>
      <trkpt lat="48.60273" lon="1.95164">
        <ele>100.11</ele>
        <time>2021-02-09T10:13:45Z</time>
      </trkpt>
      <trkpt lat="48.6026" lon="1.95167">
        <ele>100.11</ele>
        <time>2021-02-09T10:14:01Z</time>
      </trkpt>
      <trkpt lat="48.60233" lon="1.95178">
        <ele>101.08</ele>
        <time>2021-02-09T10:14:18Z</time>
      </trkpt>
      <trkpt lat="48.60206" lon="1.95196">
        <ele>101.08</ele>
        <time>2021-02-09T10:14:36Z</time>
      </trkpt>
      <trkpt lat="48.60187" lon="1.95208">
        <ele>100.6</ele>
        <time>2021-02-09T10:14:53Z</time>
      </trkpt>
      <trkpt lat="48.60172" lon="1.95216">
        <ele>100.6</ele>
        <time>2021-02-09T10:15:09Z</time>
      </trkpt>
      <trkpt lat="48.60152" lon="1.95226">
        <ele>100.11</ele>
        <time>2021-02-09T10:15:24Z</time>
      </trkpt>
      <trkpt lat="48.60121" lon="1.95243">
        <ele>100.11</ele>
        <time>2021-02-09T10:15:41Z</time>
      </trkpt>
      <trkpt lat="48.60099" lon="1.95252">
        <ele>99.63</ele>
        <time>2021-02-09T10:15:58Z</time>
      </trkpt>
      <trkpt lat="48.60091" lon="1.95261">
        <ele>99.63</ele>
        <time>2021-02-09T10:16:14Z</time>
      </trkpt>
      <trkpt lat="48.60083" lon="1.95276">
        <ele>99.15</ele>
        <time>2021-02-09T10:16:34Z</time>
      </trkpt>
      <trkpt lat="48.60078" lon="1.9528">
        <ele>99.15</ele>
        <time>2021-02-09T10:16:48Z</time>
      </trkpt>
      <trkpt lat="48.60065" lon="1.95284">
        <ele>100.11</ele>
        <time>2021-02-09T10:17:02Z</time>
      </trkpt>
      <trkpt lat="48.60044" lon="1.95289">
        <ele>99.63</ele>
        <time>2021-02-09T10:17:19Z</time>
      </trkpt>
      <trkpt lat="48.60036" lon="1.95303">
        <ele>99.63</ele>
        <time>2021-02-09T10:17:33Z</time>
      </trkpt>
      <trkpt lat="48.60036" lon="1.95309">
        <ele>99.63</ele>
        <time>2021-02-09T10:17:36Z</time>
      </trkpt>
      <trkpt lat="48.60043" lon="1.95322">
        <ele>100.11</ele>
        <time>2021-02-09T10:17:48Z</time>
      </trkpt>
      <trkpt lat="48.60042" lon="1.95328">
        <ele>100.11</ele>
        <time>2021-02-09T10:18:04Z</time>
      </trkpt>
      <trkpt lat="48.60041" lon="1.95335">
        <ele>99.63</ele>
        <time>2021-02-09T10:18:23Z</time>
      </trkpt>
      <trkpt lat="48.60024" lon="1.95375">
        <ele>99.63</ele>
        <time>2021-02-09T10:18:41Z</time>
      </trkpt>
      <trkpt lat="48.60011" lon="1.95397">
        <ele>100.6</ele>
        <time>2021-02-09T10:18:55Z</time>
      </trkpt>
      <trkpt lat="48.59994" lon="1.95429">
        <ele>101.08</ele>
        <time>2021-02-09T10:19:14Z</time>
      </trkpt>
      <trkpt lat="48.59977" lon="1.95466">
        <ele>103</ele>
        <time>2021-02-09T10:19:30Z</time>
      </trkpt>
      <trkpt lat="48.59959" lon="1.95502">
        <ele>104.44</ele>
        <time>2021-02-09T10:19:46Z</time>
      </trkpt>
      <trkpt lat="48.59942" lon="1.95536">
        <ele>106.84</ele>
        <time>2021-02-09T10:20:00Z</time>
      </trkpt>
      <trkpt lat="48.5993" lon="1.95564">
        <ele>107.32</ele>
        <time>2021-02-09T10:20:15Z</time>
      </trkpt>
      <trkpt lat="48.59915" lon="1.95597">
        <ele>107.81</ele>
        <time>2021-02-09T10:20:32Z</time>
      </trkpt>
      <trkpt lat="48.59909" lon="1.95614">
        <ele>107.81</ele>
        <time>2021-02-09T10:20:48Z</time>
      </trkpt>
      <trkpt lat="48.599" lon="1.95636">
        <ele>108.29</ele>
        <time>2021-02-09T10:21:07Z</time>
      </trkpt>
      <trkpt lat="48.59875" lon="1.95687">
        <ele>107.81</ele>
        <time>2021-02-09T10:21:24Z</time>
      </trkpt>
      <trkpt lat="48.59857" lon="1.95724">
        <ele>108.77</ele>
        <time>2021-02-09T10:21:43Z</time>
      </trkpt>
      <trkpt lat="48.59842" lon="1.95758">
        <ele>109.25</ele>
        <time>2021-02-09T10:22:01Z</time>
      </trkpt>
      <trkpt lat="48.59826" lon="1.95789">
        <ele>110.21</ele>
        <time>2021-02-09T10:22:19Z</time>
      </trkpt>
      <trkpt lat="48.59808" lon="1.95824">
        <ele>110.69</ele>
        <time>2021-02-09T10:22:40Z</time>
      </trkpt>
      <trkpt lat="48.59799" lon="1.95845">
        <ele>111.17</ele>
        <time>2021-02-09T10:22:57Z</time>
      </trkpt>
      <trkpt lat="48.59794" lon="1.95853">
        <ele>111.65</ele>
        <time>2021-02-09T10:23:15Z</time>
      </trkpt>
      <trkpt lat="48.5978" lon="1.95882">
        <ele>112.61</ele>
        <time>2021-02-09T10:23:31Z</time>
      </trkpt>
      <trkpt lat="48.59758" lon="1.95935">
        <ele>113.57</ele>
        <time>2021-02-09T10:23:51Z</time>
      </trkpt>
      <trkpt lat="48.59742" lon="1.95972">
        <ele>115.01</ele>
        <time>2021-02-09T10:24:09Z</time>
      </trkpt>
      <trkpt lat="48.59727" lon="1.9601">
        <ele>115.01</ele>
        <time>2021-02-09T10:24:25Z</time>
      </trkpt>
      <trkpt lat="48.5971" lon="1.96045">
        <ele>116.46</ele>
        <time>2021-02-09T10:24:41Z</time>
      </trkpt>
      <trkpt lat="48.59697" lon="1.96071">
        <ele>118.86</ele>
        <time>2021-02-09T10:24:57Z</time>
      </trkpt>
      <trkpt lat="48.59681" lon="1.96106">
        <ele>121.26</ele>
        <time>2021-02-09T10:25:15Z</time>
      </trkpt>
      <trkpt lat="48.59664" lon="1.96138">
        <ele>123.19</ele>
        <time>2021-02-09T10:25:32Z</time>
      </trkpt>
      <trkpt lat="48.59652" lon="1.96162">
        <ele>126.55</ele>
        <time>2021-02-09T10:25:49Z</time>
      </trkpt>
      <trkpt lat="48.59639" lon="1.9619">
        <ele>129.92</ele>
        <time>2021-02-09T10:26:03Z</time>
      </trkpt>
      <trkpt lat="48.59633" lon="1.96204">
        <ele>130.88</ele>
        <time>2021-02-09T10:26:11Z</time>
      </trkpt>
      <trkpt lat="48.59629" lon="1.96214">
        <ele>131.84</ele>
        <time>2021-02-09T10:26:15Z</time>
      </trkpt>
      <trkpt lat="48.59619" lon="1.96234">
        <ele>135.68</ele>
        <time>2021-02-09T10:26:27Z</time>
      </trkpt>
      <trkpt lat="48.59604" lon="1.96262">
        <ele>138.09</ele>
        <time>2021-02-09T10:26:43Z</time>
      </trkpt>
      <trkpt lat="48.59589" lon="1.96289">
        <ele>140.01</ele>
        <time>2021-02-09T10:26:58Z</time>
      </trkpt>
      <trkpt lat="48.5958" lon="1.96307">
        <ele>141.93</ele>
        <time>2021-02-09T10:27:12Z</time>
      </trkpt>
      <trkpt lat="48.59576" lon="1.96316">
        <ele>141.45</ele>
        <time>2021-02-09T10:27:25Z</time>
      </trkpt>
      <trkpt lat="48.59577" lon="1.96314">
        <ele>141.93</ele>
        <time>2021-02-09T10:27:37Z</time>
      </trkpt>
      <trkpt lat="48.59576" lon="1.96316">
        <ele>141.93</ele>
        <time>2021-02-09T10:27:50Z</time>
      </trkpt>
      <trkpt lat="48.59576" lon="1.96318">
        <ele>141.45</ele>
        <time>2021-02-09T10:28:11Z</time>
      </trkpt>
      <trkpt lat="48.59572" lon="1.96323">
        <ele>141.45</ele>
        <time>2021-02-09T10:28:28Z</time>
      </trkpt>
      <trkpt lat="48.59568" lon="1.96334">
        <ele>141.45</ele>
        <time>2021-02-09T10:28:35Z</time>
      </trkpt>
      <trkpt lat="48.59556" lon="1.96362">
        <ele>140.49</ele>
        <time>2021-02-09T10:28:51Z</time>
      </trkpt>
      <trkpt lat="48.59543" lon="1.96388">
        <ele>140.01</ele>
        <time>2021-02-09T10:29:05Z</time>
      </trkpt>
      <trkpt lat="48.59528" lon="1.96418">
        <ele>138.09</ele>
        <time>2021-02-09T10:29:20Z</time>
      </trkpt>
      <trkpt lat="48.59515" lon="1.96446">
        <ele>136.16</ele>
        <time>2021-02-09T10:29:35Z</time>
      </trkpt>
      <trkpt lat="48.59514" lon="1.96448">
        <ele>135.68</ele>
        <time>2021-02-09T10:29:36Z</time>
      </trkpt>
      <trkpt lat="48.59511" lon="1.96457">
        <ele>135.2</ele>
        <time>2021-02-09T10:29:41Z</time>
      </trkpt>
      <trkpt lat="48.59497" lon="1.96486">
        <ele>134.24</ele>
        <time>2021-02-09T10:29:57Z</time>
      </trkpt>
      <trkpt lat="48.59485" lon="1.96513">
        <ele>131.36</ele>
        <time>2021-02-09T10:30:12Z</time>
      </trkpt>
      <trkpt lat="48.59473" lon="1.96541">
        <ele>129.92</ele>
        <time>2021-02-09T10:30:25Z</time>
      </trkpt>
      <trkpt lat="48.59463" lon="1.96563">
        <ele>128.95</ele>
        <time>2021-02-09T10:30:38Z</time>
      </trkpt>
      <trkpt lat="48.59448" lon="1.96594">
        <ele>129.92</ele>
        <time>2021-02-09T10:30:52Z</time>
      </trkpt>
      <trkpt lat="48.59437" lon="1.96621">
        <ele>129.43</ele>
        <time>2021-02-09T10:31:06Z</time>
      </trkpt>
      <trkpt lat="48.59424" lon="1.96652">
        <ele>128.47</ele>
        <time>2021-02-09T10:31:23Z</time>
      </trkpt>
      <trkpt lat="48.59408" lon="1.96676">
        <ele>129.43</ele>
        <time>2021-02-09T10:31:37Z</time>
      </trkpt>
      <trkpt lat="48.59396" lon="1.96706">
        <ele>128.95</ele>
        <time>2021-02-09T10:31:51Z</time>
      </trkpt>
      <trkpt lat="48.59388" lon="1.96726">
        <ele>129.92</ele>
        <time>2021-02-09T10:32:04Z</time>
      </trkpt>
      <trkpt lat="48.59384" lon="1.96734">
        <ele>129.92</ele>
        <time>2021-02-09T10:32:08Z</time>
      </trkpt>
      <trkpt lat="48.59381" lon="1.96742">
        <ele>130.4</ele>
        <time>2021-02-09T10:32:13Z</time>
      </trkpt>
      <trkpt lat="48.59369" lon="1.9677">
        <ele>130.88</ele>
        <time>2021-02-09T10:32:28Z</time>
      </trkpt>
      <trkpt lat="48.59355" lon="1.96793">
        <ele>130.4</ele>
        <time>2021-02-09T10:32:42Z</time>
      </trkpt>
      <trkpt lat="48.59346" lon="1.96812">
        <ele>128.47</ele>
        <time>2021-02-09T10:32:56Z</time>
      </trkpt>
      <trkpt lat="48.59334" lon="1.96838">
        <ele>125.59</ele>
        <time>2021-02-09T10:33:11Z</time>
      </trkpt>
      <trkpt lat="48.59327" lon="1.96857">
        <ele>124.15</ele>
        <time>2021-02-09T10:33:22Z</time>
      </trkpt>
      <trkpt lat="48.59322" lon="1.96868">
        <ele>122.22</ele>
        <time>2021-02-09T10:33:30Z</time>
      </trkpt>
      <trkpt lat="48.59313" lon="1.96886">
        <ele>118.86</ele>
        <time>2021-02-09T10:33:42Z</time>
      </trkpt>
      <trkpt lat="48.59304" lon="1.96905">
        <ele>116.46</ele>
        <time>2021-02-09T10:33:55Z</time>
      </trkpt>
      <trkpt lat="48.59297" lon="1.96921">
        <ele>114.53</ele>
        <time>2021-02-09T10:34:07Z</time>
      </trkpt>
      <trkpt lat="48.59285" lon="1.96946">
        <ele>111.65</ele>
        <time>2021-02-09T10:34:20Z</time>
      </trkpt>
      <trkpt lat="48.59271" lon="1.96973">
        <ele>109.25</ele>
        <time>2021-02-09T10:34:33Z</time>
      </trkpt>
      <trkpt lat="48.59266" lon="1.96987">
        <ele>107.81</ele>
        <time>2021-02-09T10:34:41Z</time>
      </trkpt>
      <trkpt lat="48.59264" lon="1.96993">
        <ele>107.81</ele>
        <time>2021-02-09T10:34:44Z</time>
      </trkpt>
      <trkpt lat="48.59252" lon="1.97018">
        <ele>107.32</ele>
        <time>2021-02-09T10:35:00Z</time>
      </trkpt>
      <trkpt lat="48.59237" lon="1.9705">
        <ele>106.36</ele>
        <time>2021-02-09T10:35:18Z</time>
      </trkpt>
      <trkpt lat="48.59232" lon="1.97061">
        <ele>105.88</ele>
        <time>2021-02-09T10:35:27Z</time>
      </trkpt>
      <trkpt lat="48.59231" lon="1.97065">
        <ele>105.88</ele>
        <time>2021-02-09T10:35:29Z</time>
      </trkpt>
      <trkpt lat="48.59227" lon="1.97075">
        <ele>105.88</ele>
        <time>2021-02-09T10:35:34Z</time>
      </trkpt>
      <trkpt lat="48.59223" lon="1.9708">
        <ele>105.4</ele>
        <time>2021-02-09T10:35:37Z</time>
      </trkpt>
      <trkpt lat="48.5922" lon="1.97087">
        <ele>105.4</ele>
        <time>2021-02-09T10:35:40Z</time>
      </trkpt>
      <trkpt lat="48.59213" lon="1.97104">
        <ele>105.4</ele>
        <time>2021-02-09T10:35:46Z</time>
      </trkpt>
      <trkpt lat="48.59196" lon="1.97137">
        <ele>103.48</ele>
        <time>2021-02-09T10:36:04Z</time>
      </trkpt>
      <trkpt lat="48.5918" lon="1.97168">
        <ele>102.04</ele>
        <time>2021-02-09T10:36:18Z</time>
      </trkpt>
      <trkpt lat="48.59179" lon="1.97173">
        <ele>101.56</ele>
        <time>2021-02-09T10:36:21Z</time>
      </trkpt>
      <trkpt lat="48.59167" lon="1.97199">
        <ele>100.6</ele>
        <time>2021-02-09T10:36:35Z</time>
      </trkpt>
      <trkpt lat="48.59149" lon="1.97238">
        <ele>100.6</ele>
        <time>2021-02-09T10:36:51Z</time>
      </trkpt>
      <trkpt lat="48.59135" lon="1.97268">
        <ele>100.11</ele>
        <time>2021-02-09T10:37:07Z</time>
      </trkpt>
      <trkpt lat="48.59121" lon="1.97299">
        <ele>99.15</ele>
        <time>2021-02-09T10:37:23Z</time>
      </trkpt>
      <trkpt lat="48.59112" lon="1.97314">
        <ele>98.67</ele>
        <time>2021-02-09T10:37:36Z</time>
      </trkpt>
      <trkpt lat="48.59107" lon="1.97322">
        <ele>98.67</ele>
        <time>2021-02-09T10:37:54Z</time>
      </trkpt>
      <trkpt lat="48.59105" lon="1.9732">
        <ele>98.19</ele>
        <time>2021-02-09T10:38:16Z</time>
      </trkpt>
      <trkpt lat="48.59103" lon="1.9732">
        <ele>98.19</ele>
        <time>2021-02-09T10:38:50Z</time>
      </trkpt>
      <trkpt lat="48.59103" lon="1.97321">
        <ele>98.19</ele>
        <time>2021-02-09T10:39:18Z</time>
      </trkpt>
      <trkpt lat="48.59104" lon="1.9732">
        <ele>98.19</ele>
        <time>2021-02-09T10:39:48Z</time>
      </trkpt>
      <trkpt lat="48.59094" lon="1.97314">
        <ele>97.71</ele>
        <time>2021-02-09T10:39:59Z</time>
      </trkpt>
      <trkpt lat="48.59076" lon="1.973">
        <ele>96.75</ele>
        <time>2021-02-09T10:40:14Z</time>
      </trkpt>
      <trkpt lat="48.59075" lon="1.97298">
        <ele>96.75</ele>
        <time>2021-02-09T10:40:15Z</time>
      </trkpt>
      <trkpt lat="48.59069" lon="1.97292">
        <ele>96.75</ele>
        <time>2021-02-09T10:40:18Z</time>
      </trkpt>
      <trkpt lat="48.59037" lon="1.97263">
        <ele>96.27</ele>
        <time>2021-02-09T10:40:38Z</time>
      </trkpt>
      <trkpt lat="48.59025" lon="1.97234">
        <ele>95.31</ele>
        <time>2021-02-09T10:40:52Z</time>
      </trkpt>
      <trkpt lat="48.59025" lon="1.97232">
        <ele>96.27</ele>
        <time>2021-02-09T10:40:53Z</time>
      </trkpt>
      <trkpt lat="48.59028" lon="1.97205">
        <ele>95.79</ele>
        <time>2021-02-09T10:41:06Z</time>
      </trkpt>
      <trkpt lat="48.59028" lon="1.97194">
        <ele>95.79</ele>
        <time>2021-02-09T10:41:10Z</time>
      </trkpt>
      <trkpt lat="48.59033" lon="1.97165">
        <ele>95.79</ele>
        <time>2021-02-09T10:41:24Z</time>
      </trkpt>
      <trkpt lat="48.59033" lon="1.97146">
        <ele>95.79</ele>
        <time>2021-02-09T10:41:33Z</time>
      </trkpt>
      <trkpt lat="48.59035" lon="1.97122">
        <ele>95.79</ele>
        <time>2021-02-09T10:41:44Z</time>
      </trkpt>
      <trkpt lat="48.59036" lon="1.9712">
        <ele>95.79</ele>
        <time>2021-02-09T10:41:45Z</time>
      </trkpt>
      <trkpt lat="48.5904" lon="1.97108">
        <ele>95.79</ele>
        <time>2021-02-09T10:41:51Z</time>
      </trkpt>
      <trkpt lat="48.59045" lon="1.97095">
        <ele>96.27</ele>
        <time>2021-02-09T10:41:57Z</time>
      </trkpt>
      <trkpt lat="48.59046" lon="1.9707">
        <ele>96.27</ele>
        <time>2021-02-09T10:42:07Z</time>
      </trkpt>
      <trkpt lat="48.59047" lon="1.97062">
        <ele>96.27</ele>
        <time>2021-02-09T10:42:10Z</time>
      </trkpt>
      <trkpt lat="48.59053" lon="1.97038">
        <ele>97.23</ele>
        <time>2021-02-09T10:42:22Z</time>
      </trkpt>
      <trkpt lat="48.59054" lon="1.97033">
        <ele>97.23</ele>
        <time>2021-02-09T10:42:24Z</time>
      </trkpt>
      <trkpt lat="48.5906" lon="1.97018">
        <ele>97.23</ele>
        <time>2021-02-09T10:42:32Z</time>
      </trkpt>
      <trkpt lat="48.5906" lon="1.96978">
        <ele>97.23</ele>
        <time>2021-02-09T10:42:48Z</time>
      </trkpt>
      <trkpt lat="48.59066" lon="1.96961">
        <ele>96.75</ele>
        <time>2021-02-09T10:43:00Z</time>
      </trkpt>
      <trkpt lat="48.59068" lon="1.96946">
        <ele>96.27</ele>
        <time>2021-02-09T10:43:09Z</time>
      </trkpt>
      <trkpt lat="48.5908" lon="1.96909">
        <ele>96.75</ele>
        <time>2021-02-09T10:43:23Z</time>
      </trkpt>
      <trkpt lat="48.59088" lon="1.96884">
        <ele>96.75</ele>
        <time>2021-02-09T10:43:35Z</time>
      </trkpt>
      <trkpt lat="48.59098" lon="1.96856">
        <ele>96.75</ele>
        <time>2021-02-09T10:43:48Z</time>
      </trkpt>
      <trkpt lat="48.59099" lon="1.9685">
        <ele>96.75</ele>
        <time>2021-02-09T10:43:52Z</time>
      </trkpt>
      <trkpt lat="48.59104" lon="1.96825">
        <ele>96.75</ele>
        <time>2021-02-09T10:44:05Z</time>
      </trkpt>
      <trkpt lat="48.59111" lon="1.96795">
        <ele>97.23</ele>
        <time>2021-02-09T10:44:17Z</time>
      </trkpt>
      <trkpt lat="48.59113" lon="1.96791">
        <ele>91.46</ele>
        <time>2021-02-09T10:44:24Z</time>
      </trkpt>
      <trkpt lat="48.59113" lon="1.96791">
        <ele>94.35</ele>
        <time>2021-02-09T10:44:25Z</time>
      </trkpt>
      <trkpt lat="48.59113" lon="1.96792">
        <ele>100.11</ele>
        <time>2021-02-09T10:44:26Z</time>
      </trkpt>
      <trkpt lat="48.59113" lon="1.96792">
        <ele>94.35</ele>
        <time>2021-02-09T10:44:27Z</time>
      </trkpt>
      <trkpt lat="48.59113" lon="1.96792">
        <ele>103.96</ele>
        <time>2021-02-09T10:44:28Z</time>
      </trkpt>
      <trkpt lat="48.59113" lon="1.96793">
        <ele>101.56</ele>
        <time>2021-02-09T10:44:29Z</time>
      </trkpt>
      <trkpt lat="48.59114" lon="1.96792">
        <ele>97.71</ele>
        <time>2021-02-09T10:44:30Z</time>
      </trkpt>
      <trkpt lat="48.59114" lon="1.96792">
        <ele>97.23</ele>
        <time>2021-02-09T10:44:31Z</time>
      </trkpt>
      <trkpt lat="48.59116" lon="1.96781">
        <ele>97.71</ele>
        <time>2021-02-09T10:44:44Z</time>
      </trkpt>
      <trkpt lat="48.5912" lon="1.96775">
        <ele>97.71</ele>
        <time>2021-02-09T10:44:47Z</time>
      </trkpt>
      <trkpt lat="48.59127" lon="1.96757">
        <ele>98.19</ele>
        <time>2021-02-09T10:44:57Z</time>
      </trkpt>
      <trkpt lat="48.59129" lon="1.96753">
        <ele>98.19</ele>
        <time>2021-02-09T10:45:00Z</time>
      </trkpt>
      <trkpt lat="48.59136" lon="1.96732">
        <ele>98.19</ele>
        <time>2021-02-09T10:45:12Z</time>
      </trkpt>
      <trkpt lat="48.5914" lon="1.96705">
        <ele>98.67</ele>
        <time>2021-02-09T10:45:27Z</time>
      </trkpt>
      <trkpt lat="48.59141" lon="1.967">
        <ele>98.67</ele>
        <time>2021-02-09T10:45:29Z</time>
      </trkpt>
      <trkpt lat="48.59139" lon="1.96666">
        <ele>98.67</ele>
        <time>2021-02-09T10:45:43Z</time>
      </trkpt>
      <trkpt lat="48.59139" lon="1.96638">
        <ele>98.67</ele>
        <time>2021-02-09T10:45:58Z</time>
      </trkpt>
      <trkpt lat="48.59139" lon="1.96638">
        <ele>98.67</ele>
        <time>2021-02-09T10:45:59Z</time>
      </trkpt>
      <trkpt lat="48.59143" lon="1.96629">
        <ele>99.63</ele>
        <time>2021-02-09T10:46:11Z</time>
      </trkpt>
      <trkpt lat="48.59151" lon="1.96621">
        <ele>99.63</ele>
        <time>2021-02-09T10:46:24Z</time>
      </trkpt>
      <trkpt lat="48.59162" lon="1.9661">
        <ele>99.63</ele>
        <time>2021-02-09T10:46:38Z</time>
      </trkpt>
      <trkpt lat="48.59163" lon="1.96608">
        <ele>101.08</ele>
        <time>2021-02-09T10:46:54Z</time>
      </trkpt>
      <trkpt lat="48.59164" lon="1.96607">
        <ele>99.63</ele>
        <time>2021-02-09T10:47:09Z</time>
      </trkpt>
      <trkpt lat="48.59166" lon="1.96608">
        <ele>99.63</ele>
        <time>2021-02-09T10:47:30Z</time>
      </trkpt>
      <trkpt lat="48.59167" lon="1.96608">
        <ele>100.11</ele>
        <time>2021-02-09T10:47:47Z</time>
      </trkpt>
    </trkseg>
  </trk>
</gpx>